Time,TemperatureF,DewpointF,PressureIn,WindDirection,WindDirectionDegrees,WindSpeedMPH,WindSpeedGustMPH,Humidity,HourlyPrecipIn,Conditions,Clouds,dailyrainin,SolarRadiationWatts/m^2,SoftwareType,DateUTC
2013-02-05 00:00:00,42.2,40.3,29.58,SE,129,0.0,0.0,93,0.00,,CLR,0.01,0.00,VWS V14.01,2013-02-05 08:00:00,
2013-02-05 00:02:00,42.2,40.3,29.58,SE,129,0.0,0.0,93,0.00,,CLR,0.00,0.00,VWS V14.01,2013-02-05 08:02:00,
2013-02-05 00:03:00,42.2,40.3,29.58,SE,129,0.0,0.0,93,0.00,,CLR,0.00,0.00,VWS V14.01,2013-02-05 08:03:00,
2013-02-05 00:04:00,42.2,40.3,29.58,SE,129,0.0,0.0,93,0.00,,CLR,0.00,0.00,VWS V14.01,2013-02-05 08:04:00,
2013-02-05 00:07:00,42.2,40.3,29.58,SE,129,0.0,0.0,93,0.00,,CLR,0.00,0.00,VWS V14.01,2013-02-05 08:07:00,
2013-02-05 00:08:00,42.2,40.6,29.58,SE,129,0.0,0.0,94,0.00,,CLR,0.00,0.00,VWS V14.01,2013-02-05 08:08:00,
2013-02-05 00:09:00,42.2,40.6,29.58,SE,129,0.0,0.0,94,0.00,,CLR,0.00,0.00,VWS V14.01,2013-02-05 08:09:00,
2013-02-05 00:10:00,42.2,40.6,29.58,SE,129,0.0,0.0,94,0.00,,CLR,0.00,0.00,VWS V14.01,2013-02-05 08:10:00,
2013-02-05 00:12:00,42.3,40.7,29.58,SE,129,0.0,0.0,94,0.00,,CLR,0.00,0.00,VWS V14.01,2013-02-05 08:12:00,
2013-02-05 00:13:00,42.4,40.8,29.58,SE,129,0.0,0.0,94,0.00,,CLR,0.00,0.00,VWS V14.01,2013-02-05 08:13:00,
2013-02-05 00:14:00,42.4,40.8,29.58,SE,129,0.0,0.0,94,0.00,,CLR,0.00,0.00,VWS V14.01,2013-02-05 08:14:00,
2013-02-05 00:18:00,42.5,40.9,29.58,SE,129,0.0,0.0,94,0.00,,CLR,0.00,0.00,VWS V14.01,2013-02-05 08:18:00,
2013-02-05 00:19:00,42.5,40.9,29.58,SE,129,0.0,0.0,94,0.00,,CLR,0.00,0.00,VWS V14.01,2013-02-05 08:19:00,
2013-02-05 00:20:00,42.5,40.9,29.58,SE,129,0.0,0.0,94,0.00,,CLR,0.00,0.00,VWS V14.01,2013-02-05 08:20:00,
2013-02-05 00:23:00,42.5,40.9,29.58,SE,129,0.0,0.0,94,0.00,,CLR,0.00,0.00,VWS V14.01,2013-02-05 08:23:00,
2013-02-05 00:24:00,42.4,40.8,29.58,SE,129,0.0,0.0,94,0.00,,CLR,0.00,0.00,VWS V14.01,2013-02-05 08:24:00,
2013-02-05 00:28:00,42.3,40.7,29.58,SE,129,0.0,0.0,94,0.00,,CLR,0.00,0.00,VWS V14.01,2013-02-05 08:28:00,
2013-02-05 00:29:00,42.3,40.7,29.58,SE,129,0.0,0.0,94,0.00,,CLR,0.00,0.00,VWS V14.01,2013-02-05 08:29:00,
2013-02-05 00:30:00,42.2,40.6,29.58,SE,129,0.0,0.0,94,0.00,,CLR,0.00,0.00,VWS V14.01,2013-02-05 08:30:00,
2013-02-05 00:33:00,42.2,40.6,29.58,SE,129,0.0,0.0,94,0.00,,CLR,0.00,0.00,VWS V14.01,2013-02-05 08:33:00,
2013-02-05 00:34:00,42.1,40.5,29.58,SE,129,0.0,0.0,94,0.00,,CLR,0.00,0.00,VWS V14.01,2013-02-05 08:34:00,
2013-02-05 00:38:00,42.1,40.5,29.58,SE,129,0.0,0.0,94,0.00,,CLR,0.00,0.00,VWS V14.01,2013-02-05 08:38:00,
2013-02-05 00:39:00,42.1,40.5,29.58,SE,129,0.0,0.0,94,0.00,,CLR,0.00,0.00,VWS V14.01,2013-02-05 08:39:00,
2013-02-05 00:40:00,42.0,40.4,29.58,SE,129,0.0,0.0,94,0.00,,CLR,0.00,0.00,VWS V14.01,2013-02-05 08:40:00,
2013-02-05 00:43:00,41.9,40.3,29.58,SE,129,0.0,0.0,94,0.00,,CLR,0.00,0.00,VWS V14.01,2013-02-05 08:43:00,
2013-02-05 00:44:00,41.9,40.3,29.58,SE,129,0.0,0.0,94,0.00,,CLR,0.00,0.00,VWS V14.01,2013-02-05 08:44:00,
2013-02-05 00:45:00,41.9,40.3,29.58,SE,129,0.0,0.0,94,0.00,,CLR,0.00,0.00,VWS V14.01,2013-02-05 08:45:00,
2013-02-05 00:48:00,41.8,40.2,29.58,SE,129,0.0,0.0,94,0.00,,CLR,0.00,0.00,VWS V14.01,2013-02-05 08:48:00,
2013-02-05 00:49:00,41.7,40.1,29.58,SE,129,0.0,0.0,94,0.00,,CLR,0.00,0.00,VWS V14.01,2013-02-05 08:49:00,
2013-02-05 00:50:00,41.7,40.1,29.58,SE,129,0.0,0.0,94,0.00,,CLR,0.00,0.00,VWS V14.01,2013-02-05 08:50:00,
2013-02-05 00:53:00,41.6,40.0,29.58,SE,129,0.0,0.0,94,0.00,,CLR,0.00,0.00,VWS V14.01,2013-02-05 08:53:00,
2013-02-05 00:54:00,41.6,40.0,29.58,SE,129,0.0,0.0,94,0.00,,CLR,0.00,0.00,VWS V14.01,2013-02-05 08:54:00,
2013-02-05 00:55:00,41.6,40.0,29.58,SE,129,0.0,0.0,94,0.00,,CLR,0.00,0.00,VWS V14.01,2013-02-05 08:55:00,
2013-02-05 00:58:00,41.5,39.9,29.58,SE,129,0.0,0.0,94,0.00,,CLR,0.00,0.00,VWS V14.01,2013-02-05 08:58:00,
2013-02-05 00:59:00,41.5,39.9,29.58,SE,129,0.0,0.0,94,0.00,,CLR,0.00,0.00,VWS V14.01,2013-02-05 08:59:00,
2013-02-05 01:00:00,41.5,39.9,29.58,SE,129,0.0,0.0,94,0.00,,CLR,0.00,0.00,VWS V14.01,2013-02-05 09:00:00,
2013-02-05 01:03:00,41.4,39.8,29.58,SE,129,0.0,0.0,94,0.00,,CLR,0.00,0.00,VWS V14.01,2013-02-05 09:03:00,
2013-02-05 01:04:00,41.4,39.8,29.58,SE,129,0.0,0.0,94,0.00,,CLR,0.00,0.00,VWS V14.01,2013-02-05 09:04:00,
2013-02-05 01:05:00,41.4,39.8,29.58,SE,129,0.0,0.0,94,0.00,,CLR,0.00,0.00,VWS V14.01,2013-02-05 09:05:00,
2013-02-05 01:08:00,41.4,39.8,29.58,SE,129,0.0,0.0,94,0.00,,CLR,0.00,0.00,VWS V14.01,2013-02-05 09:08:00,
2013-02-05 01:09:00,41.4,39.8,29.58,SE,129,0.0,0.0,94,0.00,,CLR,0.00,0.00,VWS V14.01,2013-02-05 09:09:00,
2013-02-05 01:10:00,41.4,39.8,29.58,SE,129,0.0,0.0,94,0.00,,CLR,0.00,0.00,VWS V14.01,2013-02-05 09:10:00,
2013-02-05 01:13:00,41.4,39.8,29.58,SE,129,0.0,0.0,94,0.00,,CLR,0.00,0.00,VWS V14.01,2013-02-05 09:13:00,
2013-02-05 01:14:00,41.4,39.8,29.58,SE,129,0.0,0.0,94,0.00,,CLR,0.00,0.00,VWS V14.01,2013-02-05 09:14:00,
2013-02-05 01:15:00,41.4,39.8,29.58,SE,129,0.0,0.0,94,0.00,,CLR,0.00,0.00,VWS V14.01,2013-02-05 09:15:00,
2013-02-05 01:19:00,41.3,39.7,29.58,SE,129,0.0,0.0,94,0.00,,CLR,0.00,0.00,VWS V14.01,2013-02-05 09:19:00,
2013-02-05 01:20:00,41.3,39.7,29.58,SE,129,0.0,0.0,94,0.00,,CLR,0.00,0.00,VWS V14.01,2013-02-05 09:20:00,
2013-02-05 01:24:00,41.2,39.6,29.58,SE,129,0.0,0.0,94,0.00,,CLR,0.00,0.00,VWS V14.01,2013-02-05 09:24:00,
2013-02-05 01:25:00,41.1,39.5,29.58,SE,129,0.0,0.0,94,0.00,,CLR,0.00,0.00,VWS V14.01,2013-02-05 09:25:00,
2013-02-05 01:29:00,41.1,39.5,29.58,SE,129,0.0,0.0,94,0.00,,CLR,0.00,0.00,VWS V14.01,2013-02-05 09:29:00,
2013-02-05 01:30:00,41.1,39.5,29.58,SE,129,0.0,0.0,94,0.00,,CLR,0.00,0.00,VWS V14.01,2013-02-05 09:30:00,
2013-02-05 01:31:00,41.1,39.5,29.58,SE,129,0.0,0.0,94,0.00,,CLR,0.00,0.00,VWS V14.01,2013-02-05 09:31:00,
2013-02-05 01:34:00,41.0,39.4,29.58,SE,129,0.0,0.0,94,0.00,,CLR,0.00,0.00,VWS V14.01,2013-02-05 09:34:00,
2013-02-05 01:35:00,41.0,39.4,29.58,SE,129,0.0,0.0,94,0.00,,CLR,0.00,0.00,VWS V14.01,2013-02-05 09:35:00,
2013-02-05 01:36:00,40.9,39.3,29.58,SE,129,0.0,0.0,94,0.00,,CLR,0.00,0.00,VWS V14.01,2013-02-05 09:36:00,
2013-02-05 01:39:00,40.8,39.2,29.58,SE,129,0.0,0.0,94,0.00,,CLR,0.00,0.00,VWS V14.01,2013-02-05 09:39:00,
2013-02-05 01:40:00,40.8,39.2,29.58,SE,129,0.0,0.0,94,0.00,,CLR,0.00,0.00,VWS V14.01,2013-02-05 09:40:00,
2013-02-05 01:41:00,40.7,39.1,29.58,SE,129,0.0,0.0,94,0.00,,CLR,0.00,0.00,VWS V14.01,2013-02-05 09:41:00,
2013-02-05 01:44:00,40.6,39.0,29.57,SE,129,0.0,0.0,94,0.00,,CLR,0.00,0.00,VWS V14.01,2013-02-05 09:44:00,
2013-02-05 01:45:00,40.6,39.0,29.57,SE,129,0.0,0.0,94,0.00,,CLR,0.00,0.00,VWS V14.01,2013-02-05 09:45:00,
2013-02-05 01:46:00,40.5,38.9,29.57,SE,129,0.0,0.0,94,0.00,,CLR,0.00,0.00,VWS V14.01,2013-02-05 09:46:00,
2013-02-05 01:49:00,40.5,38.9,29.58,SE,129,0.0,0.0,94,0.00,,CLR,0.00,0.00,VWS V14.01,2013-02-05 09:49:00,
2013-02-05 01:50:00,40.5,38.9,29.58,SE,129,0.0,0.0,94,0.00,,CLR,0.00,0.00,VWS V14.01,2013-02-05 09:50:00,
2013-02-05 01:51:00,40.4,38.8,29.57,SE,129,0.0,0.0,94,0.00,,CLR,0.00,0.00,VWS V14.01,2013-02-05 09:51:00,
2013-02-05 01:54:00,40.3,38.7,29.57,SE,129,0.0,0.0,94,0.00,,CLR,0.00,0.00,VWS V14.01,2013-02-05 09:54:00,
2013-02-05 01:55:00,40.3,38.7,29.57,SE,129,0.0,0.0,94,0.00,,CLR,0.00,0.00,VWS V14.01,2013-02-05 09:55:00,
2013-02-05 01:56:00,40.3,38.7,29.57,SE,129,0.0,0.0,94,0.00,,CLR,0.00,0.00,VWS V14.01,2013-02-05 09:56:00,
2013-02-05 02:00:00,40.1,38.5,29.57,SE,129,0.0,0.0,94,0.00,,CLR,0.00,0.00,VWS V14.01,2013-02-05 10:00:00,
2013-02-05 02:01:00,40.1,38.5,29.57,SE,129,0.0,0.0,94,0.00,,CLR,0.00,0.00,VWS V14.01,2013-02-05 10:01:00,
2013-02-05 02:05:00,40.0,38.4,29.58,SE,129,0.0,0.0,94,0.00,,CLR,0.00,0.00,VWS V14.01,2013-02-05 10:05:00,
2013-02-05 02:06:00,40.0,38.4,29.57,SE,129,0.0,0.0,94,0.00,,CLR,0.00,0.00,VWS V14.01,2013-02-05 10:06:00,
2013-02-05 02:10:00,39.9,38.3,29.57,SE,129,0.0,0.0,94,0.00,,CLR,0.00,0.00,VWS V14.01,2013-02-05 10:10:00,
2013-02-05 02:11:00,39.8,38.2,29.57,SE,129,0.0,0.0,94,0.00,,CLR,0.00,0.00,VWS V14.01,2013-02-05 10:11:00,
2013-02-05 02:12:00,39.8,38.2,29.57,SE,129,0.0,0.0,94,0.00,,CLR,0.00,0.00,VWS V14.01,2013-02-05 10:12:00,
2013-02-05 02:15:00,39.8,38.2,29.57,SE,129,0.0,0.0,94,0.00,,CLR,0.00,0.00,VWS V14.01,2013-02-05 10:15:00,
2013-02-05 02:16:00,39.7,38.1,29.57,SE,129,0.0,0.0,94,0.00,,CLR,0.00,0.00,VWS V14.01,2013-02-05 10:16:00,
2013-02-05 02:17:00,39.7,38.1,29.57,SE,129,0.0,0.0,94,0.00,,CLR,0.00,0.00,VWS V14.01,2013-02-05 10:17:00,
2013-02-05 02:20:00,39.6,38.0,29.57,SE,129,0.0,0.0,94,0.00,,CLR,0.00,0.00,VWS V14.01,2013-02-05 10:20:00,
2013-02-05 02:21:00,39.7,38.1,29.57,SE,129,0.0,0.0,94,0.00,,CLR,0.00,0.00,VWS V14.01,2013-02-05 10:21:00,
2013-02-05 02:22:00,39.7,38.1,29.57,SE,129,0.0,0.0,94,0.00,,CLR,0.00,0.00,VWS V14.01,2013-02-05 10:22:00,
2013-02-05 02:25:00,39.7,38.1,29.57,SE,129,0.0,0.0,94,0.00,,CLR,0.00,0.00,VWS V14.01,2013-02-05 10:25:00,
2013-02-05 02:26:00,39.7,38.4,29.57,SE,129,0.0,0.0,95,0.00,,CLR,0.00,0.00,VWS V14.01,2013-02-05 10:26:00,
2013-02-05 02:27:00,39.8,38.5,29.57,SE,129,0.0,0.0,95,0.00,,CLR,0.00,0.00,VWS V14.01,2013-02-05 10:27:00,
2013-02-05 02:30:00,40.0,38.7,29.57,SE,129,0.0,0.0,95,0.00,,CLR,0.00,0.00,VWS V14.01,2013-02-05 10:30:00,
2013-02-05 02:32:00,40.0,38.7,29.57,SE,129,0.0,0.0,95,0.00,,CLR,0.00,0.00,VWS V14.01,2013-02-05 10:32:00,
2013-02-05 02:33:00,40.1,38.8,29.57,SE,129,0.0,0.0,95,0.00,,CLR,0.00,0.00,VWS V14.01,2013-02-05 10:33:00,
2013-02-05 02:35:00,40.2,38.9,29.57,SE,129,0.0,0.0,95,0.00,,CLR,0.00,0.00,VWS V14.01,2013-02-05 10:35:00,
2013-02-05 02:37:00,40.4,39.1,29.57,SE,129,0.0,0.0,95,0.00,,CLR,0.00,0.00,VWS V14.01,2013-02-05 10:37:00,
2013-02-05 02:38:00,40.4,39.1,29.57,SE,129,0.0,0.0,95,0.00,,CLR,0.00,0.00,VWS V14.01,2013-02-05 10:38:00,
2013-02-05 02:40:00,40.6,39.3,29.57,SE,129,0.0,0.0,95,0.00,,CLR,0.00,0.00,VWS V14.01,2013-02-05 10:40:00,
2013-02-05 02:42:00,40.7,39.4,29.57,SE,129,0.0,0.0,95,0.00,,CLR,0.00,0.00,VWS V14.01,2013-02-05 10:42:00,
2013-02-05 02:43:00,40.7,39.4,29.57,SE,129,0.0,0.0,95,0.00,,CLR,0.00,0.00,VWS V14.01,2013-02-05 10:43:00,
2013-02-05 02:45:00,40.8,39.5,29.57,SE,129,0.0,0.0,95,0.00,,CLR,0.00,0.00,VWS V14.01,2013-02-05 10:45:00,
2013-02-05 02:47:00,40.9,39.6,29.57,SE,129,0.0,0.0,95,0.00,,CLR,0.00,0.00,VWS V14.01,2013-02-05 10:47:00,
2013-02-05 02:48:00,40.9,39.6,29.57,SE,129,0.0,0.0,95,0.00,,CLR,0.00,0.00,VWS V14.01,2013-02-05 10:48:00,
2013-02-05 02:50:00,41.0,39.7,29.57,SE,129,0.0,0.0,95,0.00,,CLR,0.00,0.00,VWS V14.01,2013-02-05 10:50:00,
2013-02-05 02:51:00,41.0,39.7,29.57,SE,129,0.0,0.0,95,0.00,,CLR,0.00,0.00,VWS V14.01,2013-02-05 10:51:00,
2013-02-05 02:52:00,41.0,39.7,29.57,SE,129,0.0,0.0,95,0.00,,CLR,0.00,0.00,VWS V14.01,2013-02-05 10:52:00,
2013-02-05 02:54:00,41.1,39.8,29.57,SE,129,0.0,0.0,95,0.00,,CLR,0.00,0.00,VWS V14.01,2013-02-05 10:54:00,
2013-02-05 02:55:00,41.1,39.8,29.57,SE,129,0.0,0.0,95,0.00,,CLR,0.00,0.00,VWS V14.01,2013-02-05 10:55:00,
2013-02-05 02:56:00,41.1,39.8,29.57,SE,129,0.0,0.0,95,0.00,,CLR,0.00,0.00,VWS V14.01,2013-02-05 10:56:00,
2013-02-05 02:57:00,41.2,39.9,29.57,SE,129,0.0,0.0,95,0.00,,CLR,0.00,0.00,VWS V14.01,2013-02-05 10:57:00,
2013-02-05 02:59:00,41.3,40.0,29.57,SE,129,0.0,0.0,95,0.00,,CLR,0.00,0.00,VWS V14.01,2013-02-05 10:59:00,
2013-02-05 03:00:00,41.3,40.0,29.57,SE,129,0.0,0.0,95,0.00,,CLR,0.00,0.00,VWS V14.01,2013-02-05 11:00:00,
2013-02-05 03:01:00,41.3,40.0,29.58,SE,129,0.0,0.0,95,0.00,,CLR,0.00,0.00,VWS V14.01,2013-02-05 11:01:00,
2013-02-05 03:02:00,41.4,40.1,29.57,SE,129,0.0,0.0,95,0.00,,CLR,0.00,0.00,VWS V14.01,2013-02-05 11:02:00,
2013-02-05 03:04:00,41.4,40.1,29.57,SE,129,0.0,0.0,95,0.00,,CLR,0.00,0.00,VWS V14.01,2013-02-05 11:04:00,
2013-02-05 03:06:00,41.5,40.2,29.57,SE,129,0.0,0.0,95,0.00,,CLR,0.00,0.00,VWS V14.01,2013-02-05 11:06:00,
2013-02-05 03:07:00,41.6,40.3,29.57,SE,129,0.0,0.0,95,0.00,,CLR,0.00,0.00,VWS V14.01,2013-02-05 11:07:00,
2013-02-05 03:09:00,41.6,40.3,29.57,SE,129,0.0,0.0,95,0.00,,CLR,0.00,0.00,VWS V14.01,2013-02-05 11:09:00,
2013-02-05 03:10:00,41.7,40.4,29.57,SE,129,0.0,0.0,95,0.00,,CLR,0.00,0.00,VWS V14.01,2013-02-05 11:10:00,
2013-02-05 03:11:00,41.7,40.4,29.57,SE,129,0.0,0.0,95,0.00,,CLR,0.00,0.00,VWS V14.01,2013-02-05 11:11:00,
2013-02-05 03:12:00,41.8,40.5,29.57,SE,129,0.0,0.0,95,0.00,,CLR,0.00,0.00,VWS V14.01,2013-02-05 11:12:00,
2013-02-05 03:14:00,41.8,40.5,29.57,SE,129,0.0,0.0,95,0.00,,CLR,0.00,0.00,VWS V14.01,2013-02-05 11:14:00,
2013-02-05 03:16:00,41.8,40.5,29.57,SE,129,0.0,0.0,95,0.00,,CLR,0.00,0.00,VWS V14.01,2013-02-05 11:16:00,
2013-02-05 03:17:00,41.9,40.6,29.57,SE,129,0.0,0.0,95,0.00,,CLR,0.00,0.00,VWS V14.01,2013-02-05 11:17:00,
2013-02-05 03:19:00,41.9,40.6,29.57,SE,129,0.0,0.0,95,0.00,,CLR,0.00,0.00,VWS V14.01,2013-02-05 11:19:00,
2013-02-05 03:20:00,41.9,40.6,29.57,SE,129,0.0,0.0,95,0.00,,CLR,0.00,0.00,VWS V14.01,2013-02-05 11:20:00,
2013-02-05 03:21:00,42.0,40.7,29.57,SE,129,0.0,0.0,95,0.00,,CLR,0.00,0.00,VWS V14.01,2013-02-05 11:21:00,
2013-02-05 03:22:00,42.0,40.7,29.57,SE,129,0.0,0.0,95,0.00,,CLR,0.00,0.00,VWS V14.01,2013-02-05 11:22:00,
2013-02-05 03:24:00,42.0,40.7,29.57,SE,129,0.0,0.0,95,0.00,,CLR,0.00,0.00,VWS V14.01,2013-02-05 11:24:00,
2013-02-05 03:26:00,42.0,40.7,29.57,SE,129,0.0,0.0,95,0.00,,CLR,0.00,0.00,VWS V14.01,2013-02-05 11:26:00,
2013-02-05 03:27:00,42.0,40.7,29.57,SE,129,0.0,0.0,95,0.00,,CLR,0.00,0.00,VWS V14.01,2013-02-05 11:27:00,
2013-02-05 03:28:00,42.1,40.8,29.58,SE,129,0.0,0.0,95,0.00,,CLR,0.00,0.00,VWS V14.01,2013-02-05 11:28:00,
2013-02-05 03:29:00,42.1,40.8,29.57,SE,129,0.0,0.0,95,0.00,,CLR,0.00,0.00,VWS V14.01,2013-02-05 11:29:00,
2013-02-05 03:30:00,42.1,40.8,29.57,SE,129,0.0,0.0,95,0.00,,CLR,0.00,0.00,VWS V14.01,2013-02-05 11:30:00,
2013-02-05 03:31:00,42.2,40.9,29.57,SE,129,0.0,0.0,95,0.00,,CLR,0.00,0.00,VWS V14.01,2013-02-05 11:31:00,
2013-02-05 03:32:00,42.2,40.9,29.57,SE,129,0.0,0.0,95,0.00,,CLR,0.00,0.00,VWS V14.01,2013-02-05 11:32:00,
2013-02-05 03:33:00,42.2,40.9,29.57,SE,129,0.0,0.0,95,0.00,,CLR,0.00,0.00,VWS V14.01,2013-02-05 11:33:00,
2013-02-05 03:34:00,42.2,40.9,29.57,SE,129,0.0,0.0,95,0.00,,CLR,0.00,0.00,VWS V14.01,2013-02-05 11:34:00,
2013-02-05 03:36:00,42.2,40.9,29.57,SE,129,0.0,0.0,95,0.00,,CLR,0.00,0.00,VWS V14.01,2013-02-05 11:36:00,
2013-02-05 03:37:00,42.2,40.9,29.57,SE,129,0.0,0.0,95,0.00,,CLR,0.00,0.00,VWS V14.01,2013-02-05 11:37:00,
2013-02-05 03:38:00,42.1,40.8,29.57,SE,129,0.0,0.0,95,0.00,,CLR,0.00,0.00,VWS V14.01,2013-02-05 11:38:00,
2013-02-05 03:39:00,42.0,40.7,29.58,SE,129,0.0,0.0,95,0.00,,CLR,0.00,0.00,VWS V14.01,2013-02-05 11:39:00,
2013-02-05 03:40:00,42.0,40.7,29.58,SE,129,0.0,0.0,95,0.00,,CLR,0.00,0.00,VWS V14.01,2013-02-05 11:40:00,
2013-02-05 03:41:00,42.0,40.7,29.57,SE,129,0.0,0.0,95,0.00,,CLR,0.00,0.00,VWS V14.01,2013-02-05 11:41:00,
2013-02-05 03:42:00,41.9,40.6,29.57,SE,129,0.0,0.0,95,0.00,,CLR,0.00,0.00,VWS V14.01,2013-02-05 11:42:00,
2013-02-05 03:43:00,41.9,40.6,29.57,SE,129,0.0,0.0,95,0.00,,CLR,0.00,0.00,VWS V14.01,2013-02-05 11:43:00,
2013-02-05 03:45:00,41.8,40.5,29.57,SE,129,0.0,0.0,95,0.00,,CLR,0.00,0.00,VWS V14.01,2013-02-05 11:45:00,
2013-02-05 03:46:00,41.7,40.4,29.57,SE,129,0.0,0.0,95,0.00,,CLR,0.00,0.00,VWS V14.01,2013-02-05 11:46:00,
2013-02-05 03:47:00,41.6,40.3,29.57,SE,129,0.0,0.0,95,0.00,,CLR,0.00,0.00,VWS V14.01,2013-02-05 11:47:00,
2013-02-05 03:48:00,41.5,40.2,29.57,SE,129,0.0,0.0,95,0.00,,CLR,0.00,0.00,VWS V14.01,2013-02-05 11:48:00,
2013-02-05 03:50:00,41.5,40.2,29.57,SE,129,0.0,0.0,95,0.00,,CLR,0.00,0.00,VWS V14.01,2013-02-05 11:50:00,
2013-02-05 03:51:00,41.4,40.1,29.56,SE,129,0.0,0.0,95,0.00,,CLR,0.00,0.00,VWS V14.01,2013-02-05 11:51:00,
2013-02-05 03:52:00,41.4,40.1,29.56,SE,129,0.0,0.0,95,0.00,,CLR,0.00,0.00,VWS V14.01,2013-02-05 11:52:00,
2013-02-05 03:53:00,41.3,40.0,29.56,SE,129,0.0,0.0,95,0.00,,CLR,0.00,0.00,VWS V14.01,2013-02-05 11:53:00,
2013-02-05 03:55:00,41.3,40.0,29.56,SE,129,0.0,0.0,95,0.00,,CLR,0.00,0.00,VWS V14.01,2013-02-05 11:55:00,
2013-02-05 03:56:00,41.3,40.0,29.56,SE,129,0.0,0.0,95,0.00,,CLR,0.00,0.00,VWS V14.01,2013-02-05 11:56:00,
2013-02-05 03:57:00,41.3,40.0,29.56,SE,129,0.0,0.0,95,0.00,,CLR,0.00,0.00,VWS V14.01,2013-02-05 11:57:00,
2013-02-05 03:58:00,41.2,39.9,29.56,SE,129,0.0,0.0,95,0.00,,CLR,0.00,0.00,VWS V14.01,2013-02-05 11:58:00,
2013-02-05 04:00:00,41.2,39.9,29.56,SE,129,0.0,0.0,95,0.00,,CLR,0.00,0.00,VWS V14.01,2013-02-05 12:00:00,
2013-02-05 04:01:00,41.1,39.8,29.56,SE,129,0.0,0.0,95,0.00,,CLR,0.00,0.00,VWS V14.01,2013-02-05 12:01:00,
2013-02-05 04:02:00,41.1,39.8,29.56,SE,129,0.0,0.0,95,0.00,,CLR,0.00,0.00,VWS V14.01,2013-02-05 12:02:00,
2013-02-05 04:03:00,41.1,39.8,29.57,SE,129,0.0,0.0,95,0.00,,CLR,0.00,0.00,VWS V14.01,2013-02-05 12:03:00,
2013-02-05 04:05:00,41.0,39.7,29.57,SE,129,0.0,0.0,95,0.00,,CLR,0.00,0.00,VWS V14.01,2013-02-05 12:05:00,
2013-02-05 04:06:00,40.9,39.6,29.57,SE,129,0.0,0.0,95,0.00,,CLR,0.00,0.00,VWS V14.01,2013-02-05 12:06:00,
2013-02-05 04:07:00,40.9,39.6,29.57,SE,129,0.0,0.0,95,0.00,,CLR,0.00,0.00,VWS V14.01,2013-02-05 12:07:00,
2013-02-05 04:08:00,40.9,39.6,29.57,SE,129,0.0,0.0,95,0.00,,CLR,0.00,0.00,VWS V14.01,2013-02-05 12:08:00,
2013-02-05 04:10:00,40.8,39.5,29.57,SE,129,0.0,0.0,95,0.00,,CLR,0.00,0.00,VWS V14.01,2013-02-05 12:10:00,
2013-02-05 04:11:00,40.8,39.5,29.57,SE,129,0.0,0.0,95,0.00,,CLR,0.00,0.00,VWS V14.01,2013-02-05 12:11:00,
2013-02-05 04:12:00,40.8,39.5,29.57,SE,129,0.0,0.0,95,0.00,,CLR,0.00,0.00,VWS V14.01,2013-02-05 12:12:00,
2013-02-05 04:13:00,40.7,39.4,29.57,SE,129,0.0,0.0,95,0.00,,CLR,0.00,0.00,VWS V14.01,2013-02-05 12:13:00,
2013-02-05 04:15:00,40.7,39.4,29.57,SE,129,0.0,0.0,95,0.00,,CLR,0.00,0.00,VWS V14.01,2013-02-05 12:15:00,
2013-02-05 04:16:00,40.7,39.4,29.57,SE,129,0.0,0.0,95,0.00,,CLR,0.00,0.00,VWS V14.01,2013-02-05 12:16:00,
2013-02-05 04:17:00,40.6,39.3,29.57,SE,129,0.0,0.0,95,0.00,,CLR,0.00,0.00,VWS V14.01,2013-02-05 12:17:00,
2013-02-05 04:18:00,40.6,39.3,29.57,SE,129,0.0,0.0,95,0.00,,CLR,0.00,0.00,VWS V14.01,2013-02-05 12:18:00,
2013-02-05 04:20:00,40.6,39.3,29.57,SE,129,0.0,0.0,95,0.00,,CLR,0.00,0.00,VWS V14.01,2013-02-05 12:20:00,
2013-02-05 04:21:00,40.6,39.3,29.57,SE,129,0.0,0.0,95,0.00,,CLR,0.00,0.00,VWS V14.01,2013-02-05 12:21:00,
2013-02-05 04:22:00,40.6,39.3,29.57,SE,129,0.0,0.0,95,0.00,,CLR,0.00,0.00,VWS V14.01,2013-02-05 12:22:00,
2013-02-05 04:23:00,40.6,39.3,29.57,SE,129,0.0,0.0,95,0.00,,CLR,0.00,0.00,VWS V14.01,2013-02-05 12:23:00,
2013-02-05 04:25:00,40.6,39.3,29.57,SE,129,0.0,0.0,95,0.00,,CLR,0.00,0.00,VWS V14.01,2013-02-05 12:25:00,
2013-02-05 04:26:00,40.6,39.3,29.57,SE,129,0.0,0.0,95,0.00,,CLR,0.00,0.00,VWS V14.01,2013-02-05 12:26:00,
2013-02-05 04:28:00,40.6,39.3,29.57,SE,129,0.0,0.0,95,0.00,,CLR,0.00,0.00,VWS V14.01,2013-02-05 12:28:00,
2013-02-05 04:30:00,40.6,39.3,29.57,SE,129,0.0,0.0,95,0.00,,CLR,0.00,0.00,VWS V14.01,2013-02-05 12:30:00,
2013-02-05 04:32:00,40.6,39.3,29.57,SE,129,0.0,0.0,95,0.00,,CLR,0.00,0.00,VWS V14.01,2013-02-05 12:32:00,
2013-02-05 04:33:00,40.6,39.3,29.57,SE,129,0.0,0.0,95,0.00,,CLR,0.00,0.00,VWS V14.01,2013-02-05 12:33:00,
2013-02-05 04:35:00,40.6,39.3,29.57,SE,129,0.0,0.0,95,0.00,,CLR,0.00,0.00,VWS V14.01,2013-02-05 12:35:00,
2013-02-05 04:37:00,40.6,39.3,29.57,SE,129,0.0,0.0,95,0.00,,CLR,0.00,0.00,VWS V14.01,2013-02-05 12:37:00,
2013-02-05 04:38:00,40.6,39.3,29.57,SE,129,0.0,0.0,95,0.00,,CLR,0.00,0.00,VWS V14.01,2013-02-05 12:38:00,
2013-02-05 04:40:00,40.6,39.3,29.57,SE,129,0.0,0.0,95,0.00,,CLR,0.00,0.00,VWS V14.01,2013-02-05 12:40:00,
2013-02-05 04:41:00,40.6,39.3,29.57,SE,129,0.0,0.0,95,0.00,,CLR,0.00,0.00,VWS V14.01,2013-02-05 12:41:00,
2013-02-05 04:42:00,40.6,39.3,29.57,SE,129,0.0,0.0,95,0.00,,CLR,0.00,0.00,VWS V14.01,2013-02-05 12:42:00,
2013-02-05 04:43:00,40.6,39.3,29.57,SE,129,0.0,0.0,95,0.00,,CLR,0.00,0.00,VWS V14.01,2013-02-05 12:43:00,
2013-02-05 04:44:00,40.6,39.3,29.57,SE,129,0.0,0.0,95,0.00,,CLR,0.00,0.00,VWS V14.01,2013-02-05 12:44:00,
2013-02-05 04:46:00,40.6,39.3,29.57,SE,129,0.0,0.0,95,0.00,,CLR,0.00,0.00,VWS V14.01,2013-02-05 12:46:00,
2013-02-05 04:47:00,40.6,39.3,29.56,SE,129,0.0,0.0,95,0.00,,CLR,0.00,0.00,VWS V14.01,2013-02-05 12:47:00,
2013-02-05 04:48:00,40.6,39.3,29.57,SE,129,0.0,0.0,95,0.00,,CLR,0.00,0.00,VWS V14.01,2013-02-05 12:48:00,
2013-02-05 04:49:00,40.7,39.4,29.57,SE,129,0.0,0.0,95,0.00,,CLR,0.00,0.00,VWS V14.01,2013-02-05 12:49:00,
2013-02-05 04:50:00,40.6,39.3,29.57,SE,129,0.0,0.0,95,0.00,,CLR,0.00,0.00,VWS V14.01,2013-02-05 12:50:00,
2013-02-05 04:51:00,40.7,39.4,29.57,SE,129,0.0,0.0,95,0.00,,CLR,0.00,0.00,VWS V14.01,2013-02-05 12:51:00,
2013-02-05 04:53:00,40.7,39.4,29.57,SE,129,0.0,0.0,95,0.00,,CLR,0.00,0.00,VWS V14.01,2013-02-05 12:53:00,
2013-02-05 04:54:00,40.7,39.4,29.57,SE,129,0.0,0.0,95,0.00,,CLR,0.00,0.00,VWS V14.01,2013-02-05 12:54:00,
2013-02-05 04:56:00,40.7,39.4,29.57,SE,129,0.0,0.0,95,0.00,,CLR,0.00,0.00,VWS V14.01,2013-02-05 12:56:00,
2013-02-05 04:58:00,40.8,39.5,29.57,SE,129,0.0,0.0,95,0.00,,CLR,0.00,0.00,VWS V14.01,2013-02-05 12:58:00,
2013-02-05 04:59:00,40.8,39.5,29.57,SE,129,0.0,0.0,95,0.00,,CLR,0.00,0.00,VWS V14.01,2013-02-05 12:59:00,
2013-02-05 05:00:00,40.8,39.5,29.57,SE,129,0.0,0.0,95,0.00,,CLR,0.00,0.00,VWS V14.01,2013-02-05 13:00:00,
2013-02-05 05:01:00,40.9,39.6,29.57,SE,129,0.0,0.0,95,0.00,,CLR,0.00,0.00,VWS V14.01,2013-02-05 13:01:00,
2013-02-05 05:03:00,40.9,39.6,29.56,SE,129,0.0,1.0,95,0.00,,CLR,0.00,0.00,VWS V14.01,2013-02-05 13:03:00,
2013-02-05 05:04:00,41.0,39.7,29.56,SE,129,0.0,1.0,95,0.00,,CLR,0.00,0.00,VWS V14.01,2013-02-05 13:04:00,
2013-02-05 05:06:00,41.1,39.8,29.56,SE,129,0.0,1.0,95,0.00,,CLR,0.00,0.00,VWS V14.01,2013-02-05 13:06:00,
2013-02-05 05:08:00,41.1,39.8,29.56,SE,129,0.0,1.0,95,0.00,,CLR,0.00,0.00,VWS V14.01,2013-02-05 13:08:00,
2013-02-05 05:09:00,41.1,39.8,29.56,SE,129,0.0,1.0,95,0.00,,CLR,0.00,0.00,VWS V14.01,2013-02-05 13:09:00,
2013-02-05 05:10:00,41.1,39.8,29.56,SE,129,0.0,1.0,95,0.00,,CLR,0.00,0.00,VWS V14.01,2013-02-05 13:10:00,
2013-02-05 05:11:00,41.1,39.8,29.56,SE,129,0.0,0.0,95,0.00,,CLR,0.00,0.00,VWS V14.01,2013-02-05 13:11:00,
2013-02-05 05:13:00,41.1,39.8,29.56,SE,129,0.0,0.0,95,0.00,,CLR,0.00,0.00,VWS V14.01,2013-02-05 13:13:00,
2013-02-05 05:14:00,41.1,39.8,29.55,SE,129,0.0,0.0,95,0.00,,CLR,0.00,0.00,VWS V14.01,2013-02-05 13:14:00,
2013-02-05 05:16:00,41.1,39.8,29.55,SE,129,0.0,0.0,95,0.00,,CLR,0.00,0.00,VWS V14.01,2013-02-05 13:16:00,
2013-02-05 05:18:00,41.1,39.8,29.55,SE,129,0.0,0.0,95,0.00,,CLR,0.00,0.00,VWS V14.01,2013-02-05 13:18:00,
2013-02-05 05:19:00,41.1,39.8,29.55,SE,129,0.0,0.0,95,0.00,,CLR,0.00,0.00,VWS V14.01,2013-02-05 13:19:00,
2013-02-05 05:20:00,41.1,39.8,29.55,SE,129,0.0,0.0,95,0.00,,CLR,0.00,0.00,VWS V14.01,2013-02-05 13:20:00,
2013-02-05 05:22:00,41.1,39.8,29.56,SE,129,0.0,0.0,95,0.00,,CLR,0.00,0.00,VWS V14.01,2013-02-05 13:22:00,
2013-02-05 05:23:00,41.1,39.8,29.56,SE,129,0.0,0.0,95,0.00,,CLR,0.00,0.00,VWS V14.01,2013-02-05 13:23:00,
2013-02-05 05:24:00,41.1,39.8,29.56,SE,129,0.0,0.0,95,0.00,,CLR,0.00,0.00,VWS V14.01,2013-02-05 13:24:00,
2013-02-05 05:25:00,41.1,39.8,29.55,SE,129,0.0,0.0,95,0.00,,CLR,0.00,0.00,VWS V14.01,2013-02-05 13:25:00,
2013-02-05 05:27:00,41.1,39.8,29.56,SE,129,0.0,1.0,95,0.00,,CLR,0.00,0.00,VWS V14.01,2013-02-05 13:27:00,
2013-02-05 05:28:00,41.1,39.8,29.55,SE,129,0.0,1.0,95,0.00,,CLR,0.00,0.00,VWS V14.01,2013-02-05 13:28:00,
2013-02-05 05:29:00,41.2,39.9,29.55,SE,129,0.0,1.0,95,0.00,,CLR,0.00,0.00,VWS V14.01,2013-02-05 13:29:00,
2013-02-05 05:30:00,41.1,39.8,29.55,SE,129,0.0,1.0,95,0.00,,CLR,0.00,0.00,VWS V14.01,2013-02-05 13:30:00,
2013-02-05 05:32:00,41.1,39.8,29.55,SE,129,0.0,1.0,95,0.00,,CLR,0.00,0.00,VWS V14.01,2013-02-05 13:32:00,
2013-02-05 05:33:00,41.1,39.8,29.56,SE,129,0.0,1.0,95,0.00,,CLR,0.00,0.00,VWS V14.01,2013-02-05 13:33:00,
2013-02-05 05:34:00,41.1,39.8,29.56,SE,129,1.0,1.0,95,0.00,,CLR,0.00,0.00,VWS V14.01,2013-02-05 13:34:00,
2013-02-05 05:35:00,41.1,39.8,29.56,South,182,0.0,1.0,95,0.00,,CLR,0.00,0.00,VWS V14.01,2013-02-05 13:35:00,
2013-02-05 05:37:00,41.1,39.8,29.56,WSW,244,0.0,2.0,95,0.00,,CLR,0.00,0.00,VWS V14.01,2013-02-05 13:37:00,
2013-02-05 05:39:00,41.0,39.7,29.56,WSW,244,0.0,2.0,95,0.00,,CLR,0.00,0.00,VWS V14.01,2013-02-05 13:39:00,
2013-02-05 05:40:00,41.0,39.7,29.56,WSW,244,0.0,0.0,95,0.00,,CLR,0.00,0.00,VWS V14.01,2013-02-05 13:40:00,
2013-02-05 05:42:00,41.0,39.7,29.56,WSW,244,0.0,0.0,95,0.00,,CLR,0.00,0.00,VWS V14.01,2013-02-05 13:42:00,
2013-02-05 05:44:00,41.0,39.7,29.56,WSW,250,0.0,1.0,95,0.00,,CLR,0.00,0.00,VWS V14.01,2013-02-05 13:44:00,
2013-02-05 05:45:00,41.0,39.7,29.56,WSW,250,0.0,1.0,95,0.00,,CLR,0.00,0.00,VWS V14.01,2013-02-05 13:45:00,
2013-02-05 05:47:00,41.1,39.8,29.56,WSW,250,0.0,1.0,95,0.00,,CLR,0.00,0.00,VWS V14.01,2013-02-05 13:47:00,
2013-02-05 05:49:00,41.1,39.8,29.56,WSW,250,0.0,1.0,95,0.00,,CLR,0.00,0.00,VWS V14.01,2013-02-05 13:49:00,
2013-02-05 05:50:00,41.1,39.8,29.57,WSW,250,0.0,0.0,95,0.00,,CLR,0.00,0.00,VWS V14.01,2013-02-05 13:50:00,
2013-02-05 05:52:00,41.2,39.9,29.57,WSW,250,1.0,1.0,95,0.00,,CLR,0.00,0.00,VWS V14.01,2013-02-05 13:52:00,
2013-02-05 05:54:00,41.2,39.9,29.57,WSW,250,0.0,1.0,95,0.00,,CLR,0.00,0.00,VWS V14.01,2013-02-05 13:54:00,
2013-02-05 05:55:00,41.3,40.0,29.57,WSW,250,0.0,1.0,95,0.00,,CLR,0.00,0.00,VWS V14.01,2013-02-05 13:55:00,
2013-02-05 05:57:00,41.3,40.0,29.57,WSW,250,0.0,1.0,95,0.00,,CLR,0.00,0.00,VWS V14.01,2013-02-05 13:57:00,
2013-02-05 05:59:00,41.3,40.0,29.57,WSW,250,0.0,1.0,95,0.00,,CLR,0.00,0.00,VWS V14.01,2013-02-05 13:59:00,
2013-02-05 06:00:00,41.3,40.0,29.57,WSW,250,0.0,1.0,95,0.00,,CLR,0.00,0.00,VWS V14.01,2013-02-05 14:00:00,
2013-02-05 06:01:00,41.3,40.0,29.57,WSW,250,0.0,0.0,95,0.00,,CLR,0.00,0.00,VWS V14.01,2013-02-05 14:01:00,
2013-02-05 06:03:00,41.4,40.1,29.57,WSW,250,0.0,0.0,95,0.00,,CLR,0.00,0.00,VWS V14.01,2013-02-05 14:03:00,
2013-02-05 06:04:00,41.4,40.1,29.57,WSW,250,0.0,0.0,95,0.00,,CLR,0.00,0.00,VWS V14.01,2013-02-05 14:04:00,
2013-02-05 06:05:00,41.4,40.1,29.57,WSW,250,0.0,0.0,95,0.00,,CLR,0.00,0.00,VWS V14.01,2013-02-05 14:05:00,
2013-02-05 06:06:00,41.5,40.2,29.57,WSW,250,0.0,0.0,95,0.00,,CLR,0.00,0.00,VWS V14.01,2013-02-05 14:06:00,
2013-02-05 06:08:00,41.5,40.2,29.56,WSW,250,0.0,0.0,95,0.00,,CLR,0.00,0.00,VWS V14.01,2013-02-05 14:08:00,
2013-02-05 06:09:00,41.5,40.2,29.56,WSW,250,0.0,0.0,95,0.00,,CLR,0.00,0.00,VWS V14.01,2013-02-05 14:09:00,
2013-02-05 06:10:00,41.5,40.2,29.56,WSW,250,0.0,0.0,95,0.00,,CLR,0.00,0.00,VWS V14.01,2013-02-05 14:10:00,
2013-02-05 06:11:00,41.5,40.2,29.56,WSW,250,0.0,0.0,95,0.00,,CLR,0.00,0.00,VWS V14.01,2013-02-05 14:11:00,
2013-02-05 06:13:00,41.5,40.2,29.56,WSW,250,0.0,0.0,95,0.00,,CLR,0.00,0.00,VWS V14.01,2013-02-05 14:13:00,
2013-02-05 06:14:00,41.5,40.2,29.56,WSW,250,0.0,0.0,95,0.00,,CLR,0.00,0.00,VWS V14.01,2013-02-05 14:14:00,
2013-02-05 06:15:00,41.5,40.2,29.56,WSW,250,0.0,0.0,95,0.00,,CLR,0.00,0.00,VWS V14.01,2013-02-05 14:15:00,
2013-02-05 06:16:00,41.6,40.3,29.56,WSW,250,0.0,0.0,95,0.00,,CLR,0.00,0.00,VWS V14.01,2013-02-05 14:16:00,
2013-02-05 06:18:00,41.6,40.3,29.56,WSW,250,0.0,1.0,95,0.00,,CLR,0.00,0.00,VWS V14.01,2013-02-05 14:18:00,
2013-02-05 06:19:00,41.6,40.3,29.56,WSW,250,0.0,1.0,95,0.00,,CLR,0.00,0.00,VWS V14.01,2013-02-05 14:19:00,
2013-02-05 06:20:00,41.6,40.3,29.56,WSW,250,0.0,1.0,95,0.00,,CLR,0.00,0.00,VWS V14.01,2013-02-05 14:20:00,
2013-02-05 06:21:00,41.7,40.4,29.57,WSW,251,0.0,1.0,95,0.00,,CLR,0.00,0.00,VWS V14.01,2013-02-05 14:21:00,
2013-02-05 06:23:00,41.8,40.5,29.57,WSW,252,0.0,1.0,95,0.00,,CLR,0.00,0.00,VWS V14.01,2013-02-05 14:23:00,
2013-02-05 06:25:00,41.8,40.5,29.57,WSW,252,0.0,1.0,95,0.00,,CLR,0.00,0.00,VWS V14.01,2013-02-05 14:25:00,
2013-02-05 06:26:00,41.8,40.5,29.57,WSW,252,0.0,1.0,95,0.00,,CLR,0.00,0.00,VWS V14.01,2013-02-05 14:26:00,
2013-02-05 06:28:00,41.9,40.6,29.57,WSW,252,0.0,1.0,95,0.00,,CLR,0.00,0.00,VWS V14.01,2013-02-05 14:28:00,
2013-02-05 06:30:00,41.9,40.6,29.57,WSW,252,0.0,1.0,95,0.00,,CLR,0.00,0.00,VWS V14.01,2013-02-05 14:30:00,
2013-02-05 06:31:00,41.9,40.6,29.57,WSW,252,0.0,0.0,95,0.00,,CLR,0.00,0.00,VWS V14.01,2013-02-05 14:31:00,
2013-02-05 06:33:00,42.0,40.7,29.57,WSW,252,0.0,0.0,95,0.00,,CLR,0.00,0.00,VWS V14.01,2013-02-05 14:33:00,
2013-02-05 06:35:00,42.0,40.7,29.57,WSW,252,0.0,1.0,95,0.00,,CLR,0.00,0.00,VWS V14.01,2013-02-05 14:35:00,
2013-02-05 06:37:00,42.1,40.8,29.57,WSW,252,0.0,1.0,95,0.00,,CLR,0.00,0.00,VWS V14.01,2013-02-05 14:37:00,
2013-02-05 06:38:00,42.1,40.8,29.57,WSW,252,0.0,1.0,95,0.00,,CLR,0.00,0.00,VWS V14.01,2013-02-05 14:38:00,
2013-02-05 06:40:00,42.2,40.9,29.57,WSW,252,0.0,1.0,95,0.00,,CLR,0.00,0.00,VWS V14.01,2013-02-05 14:40:00,
2013-02-05 06:42:00,42.2,40.9,29.57,WSW,252,0.0,0.0,95,0.00,,CLR,0.00,0.00,VWS V14.01,2013-02-05 14:42:00,
2013-02-05 06:43:00,42.2,40.9,29.58,WSW,252,0.0,0.0,95,0.00,,CLR,0.00,0.00,VWS V14.01,2013-02-05 14:43:00,
2013-02-05 06:45:00,42.3,41.0,29.57,WSW,252,1.0,1.0,95,0.00,,CLR,0.00,0.00,VWS V14.01,2013-02-05 14:45:00,
2013-02-05 06:47:00,42.3,41.0,29.57,WSW,252,1.0,1.0,95,0.00,,CLR,0.00,0.00,VWS V14.01,2013-02-05 14:47:00,
2013-02-05 06:48:00,42.3,41.0,29.57,WSW,252,0.0,1.0,95,0.00,,CLR,0.00,0.00,VWS V14.01,2013-02-05 14:48:00,
2013-02-05 06:50:00,42.3,41.0,29.57,WSW,252,0.0,1.0,95,0.00,,CLR,0.00,0.00,VWS V14.01,2013-02-05 14:50:00,
2013-02-05 06:51:00,42.3,41.0,29.57,WSW,252,0.0,0.0,95,0.00,,CLR,0.00,0.00,VWS V14.01,2013-02-05 14:51:00,
2013-02-05 06:52:00,42.3,41.0,29.57,WSW,252,0.0,0.0,95,0.00,,CLR,0.00,0.00,VWS V14.01,2013-02-05 14:52:00,
2013-02-05 06:53:00,42.4,41.1,29.57,WSW,252,0.0,0.0,95,0.00,,CLR,0.00,0.00,VWS V14.01,2013-02-05 14:53:00,
2013-02-05 06:55:00,42.4,41.1,29.58,WSW,252,0.0,1.0,95,0.00,,CLR,0.00,0.00,VWS V14.01,2013-02-05 14:55:00,
2013-02-05 06:56:00,42.4,41.1,29.58,WSW,252,0.0,1.0,95,0.00,,CLR,0.00,0.00,VWS V14.01,2013-02-05 14:56:00,
2013-02-05 06:57:00,42.4,41.1,29.58,WSW,252,0.0,1.0,95,0.00,,CLR,0.00,0.00,VWS V14.01,2013-02-05 14:57:00,
2013-02-05 06:58:00,42.4,41.1,29.58,WSW,252,0.0,1.0,95,0.00,,CLR,0.00,0.00,VWS V14.01,2013-02-05 14:58:00,
2013-02-05 07:00:00,42.4,41.1,29.58,WSW,252,0.0,0.0,95,0.00,,CLR,0.00,0.00,VWS V14.01,2013-02-05 15:00:00,
2013-02-05 07:01:00,42.4,41.1,29.58,WSW,252,0.0,0.0,95,0.00,,CLR,0.00,0.00,VWS V14.01,2013-02-05 15:01:00,
2013-02-05 07:02:00,42.5,41.2,29.58,WSW,252,0.0,0.0,95,0.00,,CLR,0.00,0.00,VWS V14.01,2013-02-05 15:02:00,
2013-02-05 07:03:00,42.5,41.2,29.58,WSW,252,0.0,0.0,95,0.00,,CLR,0.00,0.00,VWS V14.01,2013-02-05 15:03:00,
2013-02-05 07:05:00,42.5,41.2,29.58,WSW,252,0.0,0.0,95,0.00,,CLR,0.00,0.00,VWS V14.01,2013-02-05 15:05:00,
2013-02-05 07:06:00,42.5,41.2,29.58,WSW,252,0.0,0.0,95,0.00,,CLR,0.00,0.00,VWS V14.01,2013-02-05 15:06:00,
2013-02-05 07:07:00,42.5,41.2,29.58,WSW,252,0.0,0.0,95,0.00,,CLR,0.00,0.00,VWS V14.01,2013-02-05 15:07:00,
2013-02-05 07:08:00,42.5,41.2,29.58,WSW,252,0.0,0.0,95,0.00,,CLR,0.00,0.00,VWS V14.01,2013-02-05 15:08:00,
2013-02-05 07:10:00,42.5,41.2,29.58,WSW,252,0.0,0.0,95,0.00,,CLR,0.00,0.00,VWS V14.01,2013-02-05 15:10:00,
2013-02-05 07:11:00,42.6,41.3,29.58,WSW,252,0.0,0.0,95,0.00,,CLR,0.00,0.00,VWS V14.01,2013-02-05 15:11:00,
2013-02-05 07:12:00,42.6,41.3,29.58,WSW,252,0.0,1.0,95,0.00,,CLR,0.00,0.00,VWS V14.01,2013-02-05 15:12:00,
2013-02-05 07:13:00,42.6,41.3,29.58,WSW,252,1.0,1.0,95,0.00,,CLR,0.00,0.00,VWS V14.01,2013-02-05 15:13:00,
2013-02-05 07:15:00,42.7,41.4,29.58,West,280,2.0,2.0,95,0.00,,CLR,0.00,5.00,VWS V14.01,2013-02-05 15:15:00,
2013-02-05 07:16:00,42.6,41.3,29.58,West,280,0.0,2.0,95,0.00,,CLR,0.00,5.00,VWS V14.01,2013-02-05 15:16:00,
2013-02-05 07:18:00,42.7,41.4,29.59,West,280,0.0,2.0,95,0.00,,CLR,0.00,5.00,VWS V14.01,2013-02-05 15:18:00,
2013-02-05 07:20:00,42.7,41.4,29.59,West,280,0.0,0.0,95,0.00,,CLR,0.00,5.00,VWS V14.01,2013-02-05 15:20:00,
2013-02-05 07:21:00,42.8,41.5,29.59,West,280,0.0,0.0,95,0.00,,CLR,0.00,7.00,VWS V14.01,2013-02-05 15:21:00,
2013-02-05 07:23:00,42.7,41.4,29.59,West,280,0.0,0.0,95,0.00,,CLR,0.00,7.00,VWS V14.01,2013-02-05 15:23:00,
2013-02-05 07:25:00,42.8,41.5,29.59,West,280,0.0,1.0,95,0.00,,CLR,0.00,9.00,VWS V14.01,2013-02-05 15:25:00,
2013-02-05 07:26:00,42.8,41.5,29.59,West,280,0.0,1.0,95,0.00,,CLR,0.00,9.00,VWS V14.01,2013-02-05 15:26:00,
2013-02-05 07:28:00,42.8,41.5,29.59,West,280,0.0,1.0,95,0.00,,CLR,0.00,11.00,VWS V14.01,2013-02-05 15:28:00,
2013-02-05 07:30:00,42.9,41.6,29.59,West,280,0.0,0.0,95,0.00,,CLR,0.00,14.00,VWS V14.01,2013-02-05 15:30:00,
2013-02-05 07:31:00,42.9,41.6,29.59,West,280,0.0,0.0,95,0.00,,CLR,0.00,16.00,VWS V14.01,2013-02-05 15:31:00,
2013-02-05 07:33:00,42.9,41.6,29.59,West,280,0.0,0.0,95,0.00,,CLR,0.00,21.00,VWS V14.01,2013-02-05 15:33:00,
2013-02-05 07:34:00,42.9,41.6,29.59,West,280,0.0,0.0,95,0.00,,CLR,0.00,21.00,VWS V14.01,2013-02-05 15:34:00,
2013-02-05 07:35:00,42.9,41.6,29.59,West,280,0.0,0.0,95,0.00,,CLR,0.00,21.00,VWS V14.01,2013-02-05 15:35:00,
2013-02-05 07:36:00,43.0,41.7,29.58,West,280,0.0,0.0,95,0.00,,CLR,0.00,26.00,VWS V14.01,2013-02-05 15:36:00,
2013-02-05 07:38:00,43.0,41.7,29.59,West,280,0.0,0.0,95,0.00,,CLR,0.00,33.00,VWS V14.01,2013-02-05 15:38:00,
2013-02-05 07:39:00,43.0,41.7,29.59,West,280,0.0,0.0,95,0.00,,CLR,0.00,40.00,VWS V14.01,2013-02-05 15:39:00,
2013-02-05 07:40:00,43.1,41.8,29.59,West,280,0.0,0.0,95,0.00,,CLR,0.00,42.00,VWS V14.01,2013-02-05 15:40:00,
2013-02-05 07:41:00,43.1,41.8,29.59,West,280,0.0,0.0,95,0.00,,CLR,0.00,44.00,VWS V14.01,2013-02-05 15:41:00,
2013-02-05 07:43:00,43.1,41.8,29.59,West,280,0.0,0.0,95,0.00,,CLR,0.00,47.00,VWS V14.01,2013-02-05 15:43:00,
2013-02-05 07:44:00,43.1,41.8,29.59,West,280,0.0,0.0,95,0.00,,CLR,0.00,40.00,VWS V14.01,2013-02-05 15:44:00,
2013-02-05 07:45:00,43.2,41.9,29.59,West,280,0.0,0.0,95,0.00,,CLR,0.00,35.00,VWS V14.01,2013-02-05 15:45:00,
2013-02-05 07:46:00,43.2,41.9,29.59,West,280,0.0,0.0,95,0.00,,CLR,0.00,37.00,VWS V14.01,2013-02-05 15:46:00,
2013-02-05 07:48:00,43.2,41.9,29.59,West,280,0.0,0.0,95,0.00,,CLR,0.00,39.00,VWS V14.01,2013-02-05 15:48:00,
2013-02-05 07:49:00,43.2,41.9,29.59,West,280,0.0,1.0,95,0.00,,CLR,0.00,44.00,VWS V14.01,2013-02-05 15:49:00,
2013-02-05 07:50:00,43.3,42.0,29.59,West,280,0.0,0.0,95,0.00,,CLR,0.00,44.00,VWS V14.01,2013-02-05 15:50:00,
2013-02-05 07:52:00,43.3,42.0,29.59,West,280,0.0,0.0,95,0.00,,CLR,0.00,42.00,VWS V14.01,2013-02-05 15:52:00,
2013-02-05 07:53:00,43.3,42.0,29.59,West,280,0.0,0.0,95,0.00,,CLR,0.00,42.00,VWS V14.01,2013-02-05 15:53:00,
2013-02-05 07:54:00,43.4,42.1,29.59,West,280,0.0,1.0,95,0.00,,CLR,0.00,42.00,VWS V14.01,2013-02-05 15:54:00,
2013-02-05 07:56:00,43.4,42.1,29.59,West,280,0.0,1.0,95,0.00,,CLR,0.00,42.00,VWS V14.01,2013-02-05 15:56:00,
2013-02-05 07:57:00,43.4,42.1,29.59,West,280,0.0,1.0,95,0.00,,CLR,0.00,40.00,VWS V14.01,2013-02-05 15:57:00,
2013-02-05 07:58:00,43.4,42.1,29.59,West,280,0.0,1.0,95,0.00,,CLR,0.00,40.00,VWS V14.01,2013-02-05 15:58:00,
2013-02-05 07:59:00,43.5,42.2,29.59,West,280,0.0,1.0,95,0.00,,CLR,0.00,44.00,VWS V14.01,2013-02-05 15:59:00,
2013-02-05 08:00:00,43.5,42.2,29.59,West,280,0.0,1.0,95,0.00,,CLR,0.00,46.00,VWS V14.01,2013-02-05 16:00:00,
2013-02-05 08:01:00,43.6,42.3,29.59,West,280,0.0,0.0,95,0.00,,CLR,0.00,47.00,VWS V14.01,2013-02-05 16:01:00,
2013-02-05 08:02:00,43.6,42.3,29.59,West,280,0.0,0.0,95,0.00,,CLR,0.00,49.00,VWS V14.01,2013-02-05 16:02:00,
2013-02-05 08:03:00,43.6,42.3,29.59,West,280,0.0,0.0,95,0.00,,CLR,0.00,49.00,VWS V14.01,2013-02-05 16:03:00,
2013-02-05 08:04:00,43.6,42.3,29.59,West,280,0.0,0.0,95,0.00,,CLR,0.00,47.00,VWS V14.01,2013-02-05 16:04:00,
2013-02-05 08:06:00,43.7,42.4,29.59,West,280,0.0,1.0,95,0.00,,CLR,0.00,53.00,VWS V14.01,2013-02-05 16:06:00,
2013-02-05 08:07:00,43.7,42.4,29.59,West,280,0.0,1.0,95,0.00,,CLR,0.00,56.00,VWS V14.01,2013-02-05 16:07:00,
2013-02-05 08:08:00,43.7,42.4,29.59,NW,315,2.0,2.0,95,0.00,,CLR,0.00,54.00,VWS V14.01,2013-02-05 16:08:00,
2013-02-05 08:09:00,43.8,42.5,29.59,NW,314,0.0,2.0,95,0.00,,CLR,0.00,56.00,VWS V14.01,2013-02-05 16:09:00,
2013-02-05 08:10:00,43.8,42.5,29.59,NW,314,0.0,2.0,95,0.00,,CLR,0.00,56.00,VWS V14.01,2013-02-05 16:10:00,
2013-02-05 08:11:00,43.9,42.6,29.59,WNW,296,0.0,3.0,95,0.00,,CLR,0.00,76.00,VWS V14.01,2013-02-05 16:11:00,
2013-02-05 08:12:00,43.9,42.6,29.59,WNW,296,0.0,3.0,95,0.00,,CLR,0.00,76.00,VWS V14.01,2013-02-05 16:12:00,
2013-02-05 08:13:00,43.9,42.6,29.59,WNW,296,0.0,3.0,95,0.00,,CLR,0.00,72.00,VWS V14.01,2013-02-05 16:13:00,
2013-02-05 08:14:00,43.9,42.3,29.59,WNW,296,3.0,3.0,94,0.00,,CLR,0.00,77.00,VWS V14.01,2013-02-05 16:14:00,
2013-02-05 08:16:00,44.1,42.5,29.59,WNW,289,0.0,3.0,94,0.00,,CLR,0.00,102.00,VWS V14.01,2013-02-05 16:16:00,
2013-02-05 08:17:00,44.1,42.5,29.59,WNW,289,0.0,3.0,94,0.00,,CLR,0.00,102.00,VWS V14.01,2013-02-05 16:17:00,
2013-02-05 08:18:00,44.1,42.5,29.59,WNW,289,0.0,3.0,94,0.00,,CLR,0.00,97.00,VWS V14.01,2013-02-05 16:18:00,
2013-02-05 08:19:00,44.2,42.6,29.59,WNW,289,0.0,3.0,94,0.00,,CLR,0.00,98.00,VWS V14.01,2013-02-05 16:19:00,
2013-02-05 08:20:00,44.2,42.6,29.59,WNW,289,1.0,3.0,94,0.00,,CLR,0.00,98.00,VWS V14.01,2013-02-05 16:20:00,
2013-02-05 08:21:00,44.2,42.6,29.59,NNW,337,0.0,3.0,94,0.00,,CLR,0.00,93.00,VWS V14.01,2013-02-05 16:21:00,
2013-02-05 08:22:00,44.3,42.7,29.59,NNW,337,0.0,3.0,94,0.00,,CLR,0.00,93.00,VWS V14.01,2013-02-05 16:22:00,
2013-02-05 08:23:00,44.3,42.7,29.59,NNW,337,0.0,3.0,94,0.00,,CLR,0.00,93.00,VWS V14.01,2013-02-05 16:23:00,
2013-02-05 08:25:00,44.4,42.8,29.59,North,350,1.0,3.0,94,0.00,,CLR,0.00,97.00,VWS V14.01,2013-02-05 16:25:00,
2013-02-05 08:26:00,44.5,42.6,29.59,WNW,298,3.0,3.0,93,0.00,,CLR,0.00,90.00,VWS V14.01,2013-02-05 16:26:00,
2013-02-05 08:27:00,44.5,42.6,29.59,NNW,338,6.0,6.0,93,0.00,,CLR,0.00,90.00,VWS V14.01,2013-02-05 16:27:00,
2013-02-05 08:28:00,44.5,42.6,29.59,NNW,344,0.0,6.0,93,0.00,,CLR,0.00,95.00,VWS V14.01,2013-02-05 16:28:00,
2013-02-05 08:30:00,44.6,42.7,29.59,WSW,246,0.0,6.0,93,0.00,,CLR,0.00,97.00,VWS V14.01,2013-02-05 16:30:00,
2013-02-05 08:32:00,44.7,42.8,29.59,WNW,290,1.0,2.0,93,0.00,,CLR,0.00,79.00,VWS V14.01,2013-02-05 16:32:00,
2013-02-05 08:33:00,44.7,42.5,29.59,WNW,296,1.0,3.0,92,0.00,,CLR,0.00,74.00,VWS V14.01,2013-02-05 16:33:00,
2013-02-05 08:35:00,44.8,42.6,29.59,NW,306,0.0,3.0,92,0.00,,CLR,0.00,70.00,VWS V14.01,2013-02-05 16:35:00,
2013-02-05 08:37:00,44.9,42.7,29.59,North,360,0.0,3.0,92,0.00,,CLR,0.00,74.00,VWS V14.01,2013-02-05 16:37:00,
2013-02-05 08:38:00,44.9,42.4,29.59,North,349,0.0,3.0,91,0.00,,CLR,0.00,95.00,VWS V14.01,2013-02-05 16:38:00,
2013-02-05 08:40:00,45.0,42.5,29.60,NW,321,0.0,3.0,91,0.00,,CLR,0.00,116.00,VWS V14.01,2013-02-05 16:40:00,
2013-02-05 08:42:00,45.0,42.5,29.60,NNW,342,2.0,2.0,91,0.00,,CLR,0.00,102.00,VWS V14.01,2013-02-05 16:42:00,
2013-02-05 08:43:00,45.1,42.6,29.59,NW,320,0.0,2.0,91,0.00,,CLR,0.00,104.00,VWS V14.01,2013-02-05 16:43:00,
2013-02-05 08:45:00,45.1,42.6,29.59,NW,320,0.0,2.0,91,0.00,,CLR,0.00,123.00,VWS V14.01,2013-02-05 16:45:00,
2013-02-05 08:47:00,45.2,42.7,29.59,West,269,0.0,2.0,91,0.00,,CLR,0.00,114.00,VWS V14.01,2013-02-05 16:47:00,
2013-02-05 08:48:00,45.3,42.8,29.59,West,269,0.0,2.0,91,0.00,,CLR,0.00,127.00,VWS V14.01,2013-02-05 16:48:00,
2013-02-05 08:50:00,45.3,42.8,29.59,NNW,331,0.0,2.0,91,0.00,,CLR,0.00,141.00,VWS V14.01,2013-02-05 16:50:00,
2013-02-05 08:52:00,45.4,42.9,29.59,NNW,331,0.0,1.0,91,0.00,,CLR,0.00,128.00,VWS V14.01,2013-02-05 16:52:00,
2013-02-05 08:53:00,45.5,42.7,29.60,West,261,0.0,4.0,90,0.00,,CLR,0.00,134.00,VWS V14.01,2013-02-05 16:53:00,
2013-02-05 08:55:00,45.5,42.7,29.59,West,259,1.0,4.0,90,0.00,,CLR,0.00,146.00,VWS V14.01,2013-02-05 16:55:00,
2013-02-05 08:57:00,45.6,42.8,29.59,NW,322,0.0,4.0,90,0.00,,CLR,0.00,186.00,VWS V14.01,2013-02-05 16:57:00,
2013-02-05 08:58:00,45.8,43.0,29.59,West,262,1.0,4.0,90,0.00,,CLR,0.00,183.00,VWS V14.01,2013-02-05 16:58:00,
2013-02-05 09:00:00,45.8,43.0,29.59,WSW,252,0.0,0.0,90,0.00,,CLR,0.00,178.00,VWS V14.01,2013-02-05 17:00:00,
2013-02-05 09:02:00,45.9,43.1,29.60,WNW,289,0.0,2.0,90,0.00,,CLR,0.00,142.00,VWS V14.01,2013-02-05 17:02:00,
2013-02-05 09:03:00,46.0,43.2,29.60,WSW,237,2.0,4.0,90,0.00,,CLR,0.00,142.00,VWS V14.01,2013-02-05 17:03:00,
2013-02-05 09:04:00,46.0,43.0,29.59,WSW,237,0.0,4.0,89,0.00,,CLR,0.00,137.00,VWS V14.01,2013-02-05 17:04:00,
2013-02-05 09:05:00,46.1,43.0,29.60,SW,234,0.0,4.0,89,0.00,,CLR,0.00,137.00,VWS V14.01,2013-02-05 17:05:00,
2013-02-05 09:07:00,46.2,43.1,29.60,WSW,240,0.0,5.0,89,0.00,,CLR,0.00,125.00,VWS V14.01,2013-02-05 17:07:00,
2013-02-05 09:08:00,46.3,43.2,29.60,WSW,250,1.0,5.0,89,0.00,,CLR,0.00,113.00,VWS V14.01,2013-02-05 17:08:00,
2013-02-05 09:09:00,46.3,43.2,29.60,WSW,241,0.0,5.0,89,0.00,,CLR,0.00,109.00,VWS V14.01,2013-02-05 17:09:00,
2013-02-05 09:10:00,46.4,43.0,29.60,WSW,245,0.0,1.0,88,0.00,,CLR,0.00,97.00,VWS V14.01,2013-02-05 17:10:00,
2013-02-05 09:12:00,46.4,43.0,29.60,WSW,258,1.0,5.0,88,0.00,,CLR,0.00,109.00,VWS V14.01,2013-02-05 17:12:00,
2013-02-05 09:13:00,46.4,43.0,29.60,WSW,258,0.0,5.0,88,0.00,,CLR,0.00,123.00,VWS V14.01,2013-02-05 17:13:00,
2013-02-05 09:14:00,46.5,43.1,29.60,WSW,257,0.0,5.0,88,0.00,,CLR,0.00,114.00,VWS V14.01,2013-02-05 17:14:00,
2013-02-05 09:15:00,46.5,43.1,29.60,NW,315,0.0,5.0,88,0.00,,CLR,0.00,93.00,VWS V14.01,2013-02-05 17:15:00,
2013-02-05 09:17:00,46.5,43.1,29.60,NW,315,0.0,5.0,88,0.00,,CLR,0.00,98.00,VWS V14.01,2013-02-05 17:17:00,
2013-02-05 09:18:00,46.5,43.1,29.60,WNW,282,1.0,5.0,88,0.00,,CLR,0.00,90.00,VWS V14.01,2013-02-05 17:18:00,
2013-02-05 09:19:00,46.5,42.8,29.61,NW,305,0.0,5.0,87,0.00,,CLR,0.00,88.00,VWS V14.01,2013-02-05 17:19:00,
2013-02-05 09:20:00,46.5,42.8,29.60,NW,317,1.0,1.0,87,0.00,,CLR,0.00,93.00,VWS V14.01,2013-02-05 17:20:00,
2013-02-05 09:22:00,46.6,43.2,29.60,SSE,162,0.0,4.0,88,0.00,,CLR,0.00,69.00,VWS V14.01,2013-02-05 17:22:00,
2013-02-05 09:23:00,46.6,42.9,29.60,WSW,252,0.0,4.0,87,0.00,,CLR,0.00,76.00,VWS V14.01,2013-02-05 17:23:00,
2013-02-05 09:24:00,46.6,42.9,29.60,NE,41,2.0,4.0,87,0.00,,CLR,0.00,76.00,VWS V14.01,2013-02-05 17:24:00,
2013-02-05 09:25:00,46.6,42.9,29.60,North,355,0.0,5.0,87,0.00,,CLR,0.00,369.00,VWS V14.01,2013-02-05 17:25:00,
2013-02-05 09:28:00,46.7,43.3,29.60,North,355,0.0,5.0,88,0.00,,CLR,0.00,334.00,VWS V14.01,2013-02-05 17:28:00,
2013-02-05 09:29:00,46.8,43.4,29.60,SW,226,0.0,5.0,88,0.00,,CLR,0.00,334.00,VWS V14.01,2013-02-05 17:29:00,
2013-02-05 09:30:00,46.9,43.5,29.60,NW,314,1.0,1.0,88,0.00,,CLR,0.00,167.00,VWS V14.01,2013-02-05 17:30:00,
2013-02-05 09:33:00,47.0,43.3,29.60,NW,319,0.0,1.0,87,0.00,,CLR,0.00,185.00,VWS V14.01,2013-02-05 17:33:00,
2013-02-05 09:34:00,47.2,43.5,29.60,North,355,0.0,2.0,87,0.00,,CLR,0.00,192.00,VWS V14.01,2013-02-05 17:34:00,
2013-02-05 09:36:00,47.2,43.5,29.60,North,355,0.0,2.0,87,0.00,,CLR,0.00,193.00,VWS V14.01,2013-02-05 17:36:00,
2013-02-05 09:38:00,47.4,43.4,29.60,North,9,1.0,4.0,86,0.00,,CLR,0.00,183.00,VWS V14.01,2013-02-05 17:38:00,
2013-02-05 09:40:00,47.4,43.4,29.60,North,9,0.0,4.0,86,0.00,,CLR,0.00,155.00,VWS V14.01,2013-02-05 17:40:00,
2013-02-05 09:41:00,47.5,43.5,29.60,North,9,0.0,0.0,86,0.00,,CLR,0.00,216.00,VWS V14.01,2013-02-05 17:41:00,
2013-02-05 09:43:00,47.6,43.9,29.60,North,9,0.0,0.0,87,0.00,,CLR,0.00,165.00,VWS V14.01,2013-02-05 17:43:00,
2013-02-05 09:45:00,47.8,43.8,29.60,North,10,0.0,0.0,86,0.00,,CLR,0.00,211.00,VWS V14.01,2013-02-05 17:45:00,
2013-02-05 09:46:00,47.9,43.9,29.60,North,10,0.0,0.0,86,0.00,,CLR,0.00,158.00,VWS V14.01,2013-02-05 17:46:00,
2013-02-05 09:48:00,48.0,43.7,29.60,WNW,290,0.0,2.0,85,0.00,,CLR,0.00,148.00,VWS V14.01,2013-02-05 17:48:00,
2013-02-05 09:50:00,48.0,43.7,29.60,WNW,290,0.0,2.0,85,0.00,,CLR,0.00,183.00,VWS V14.01,2013-02-05 17:50:00,
2013-02-05 09:51:00,48.1,43.8,29.60,WNW,286,2.0,3.0,85,0.00,,CLR,0.00,265.00,VWS V14.01,2013-02-05 17:51:00,
2013-02-05 09:53:00,48.2,43.9,29.60,WNW,288,0.0,3.0,85,0.00,,CLR,0.00,188.00,VWS V14.01,2013-02-05 17:53:00,
2013-02-05 09:55:00,48.2,43.9,29.60,WNW,288,0.0,3.0,85,0.00,,CLR,0.00,165.00,VWS V14.01,2013-02-05 17:55:00,
2013-02-05 09:56:00,48.2,43.9,29.60,WNW,288,0.0,3.0,85,0.00,,CLR,0.00,156.00,VWS V14.01,2013-02-05 17:56:00,
2013-02-05 09:58:00,48.3,44.0,29.60,WNW,288,0.0,3.0,85,0.00,,CLR,0.00,172.00,VWS V14.01,2013-02-05 17:58:00,
2013-02-05 10:00:00,48.4,44.1,29.60,WNW,288,0.0,3.0,85,0.00,,CLR,0.00,186.00,VWS V14.01,2013-02-05 18:00:00,
2013-02-05 10:01:00,48.5,43.9,29.60,WNW,288,0.0,2.0,84,0.00,,CLR,0.00,186.00,VWS V14.01,2013-02-05 18:01:00,
2013-02-05 10:03:00,48.5,43.9,29.60,WNW,288,1.0,2.0,84,0.00,,CLR,0.00,197.00,VWS V14.01,2013-02-05 18:03:00,
2013-02-05 10:05:00,48.6,44.0,29.60,WNW,288,0.0,2.0,84,0.00,,CLR,0.00,192.00,VWS V14.01,2013-02-05 18:05:00,
2013-02-05 10:06:00,48.6,44.0,29.61,WNW,288,0.0,2.0,84,0.00,,CLR,0.00,185.00,VWS V14.01,2013-02-05 18:06:00,
2013-02-05 10:08:00,48.6,44.0,29.61,WNW,288,0.0,2.0,84,0.00,,CLR,0.00,186.00,VWS V14.01,2013-02-05 18:08:00,
2013-02-05 10:10:00,48.7,44.1,29.61,WNW,288,0.0,0.0,84,0.00,,CLR,0.00,190.00,VWS V14.01,2013-02-05 18:10:00,
2013-02-05 10:11:00,48.8,44.2,29.61,WNW,288,1.0,2.0,84,0.00,,CLR,0.00,199.00,VWS V14.01,2013-02-05 18:11:00,
2013-02-05 10:13:00,48.8,44.2,29.61,WNW,288,0.0,2.0,84,0.00,,CLR,0.00,209.00,VWS V14.01,2013-02-05 18:13:00,
2013-02-05 10:15:00,48.9,44.3,29.61,WNW,288,0.0,2.0,84,0.00,,CLR,0.00,236.00,VWS V14.01,2013-02-05 18:15:00,
2013-02-05 10:16:00,49.0,44.4,29.61,WNW,288,0.0,2.0,84,0.00,,CLR,0.00,258.00,VWS V14.01,2013-02-05 18:16:00,
2013-02-05 10:18:00,49.1,44.2,29.61,WNW,288,0.0,2.0,83,0.00,,CLR,0.00,294.00,VWS V14.01,2013-02-05 18:18:00,
2013-02-05 10:19:00,49.1,44.2,29.61,WNW,288,0.0,2.0,83,0.00,,CLR,0.00,294.00,VWS V14.01,2013-02-05 18:19:00,
2013-02-05 10:20:00,49.2,44.3,29.61,WNW,288,0.0,1.0,83,0.00,,CLR,0.00,578.00,VWS V14.01,2013-02-05 18:20:00,
2013-02-05 10:21:00,49.3,44.0,29.61,WNW,288,0.0,1.0,82,0.00,,CLR,0.00,482.00,VWS V14.01,2013-02-05 18:21:00,
2013-02-05 10:23:00,49.6,44.3,29.61,WNW,288,0.0,1.0,82,0.00,,CLR,0.00,687.00,VWS V14.01,2013-02-05 18:23:00,
2013-02-05 10:24:00,49.6,44.3,29.61,WNW,288,0.0,1.0,82,0.00,,CLR,0.00,687.00,VWS V14.01,2013-02-05 18:24:00,
2013-02-05 10:26:00,49.9,45.0,29.61,WNW,288,0.0,1.0,83,0.00,,CLR,0.00,687.00,VWS V14.01,2013-02-05 18:26:00,
2013-02-05 10:29:00,50.4,44.8,29.61,NW,311,3.0,3.0,81,0.00,,CLR,0.00,193.00,VWS V14.01,2013-02-05 18:29:00,
2013-02-05 10:30:00,50.5,44.6,29.61,NNW,348,0.0,5.0,80,0.00,,CLR,0.00,279.00,VWS V14.01,2013-02-05 18:30:00,
2013-02-05 10:31:00,50.6,45.0,29.61,NNW,348,0.0,1.0,81,0.00,,CLR,0.00,279.00,VWS V14.01,2013-02-05 18:31:00,
2013-02-05 10:34:00,50.9,45.0,29.61,NE,37,0.0,2.0,80,0.00,,CLR,0.00,243.00,VWS V14.01,2013-02-05 18:34:00,
2013-02-05 10:36:00,51.0,45.1,29.61,NE,37,0.0,2.0,80,0.00,,CLR,0.00,313.00,VWS V14.01,2013-02-05 18:36:00,
2013-02-05 10:37:00,51.1,45.2,29.61,NE,37,0.0,2.0,80,0.00,,CLR,0.00,541.00,VWS V14.01,2013-02-05 18:37:00,
2013-02-05 10:39:00,51.4,45.5,29.61,NE,37,0.0,2.0,80,0.00,,CLR,0.00,647.00,VWS V14.01,2013-02-05 18:39:00,
2013-02-05 10:40:00,51.5,45.2,29.61,North,5,0.0,2.0,79,0.00,,CLR,0.00,647.00,VWS V14.01,2013-02-05 18:40:00,
2013-02-05 10:41:00,51.7,45.1,29.62,North,5,1.0,2.0,78,0.00,,CLR,0.00,647.00,VWS V14.01,2013-02-05 18:41:00,
2013-02-05 10:42:00,51.8,45.2,29.62,North,5,0.0,2.0,78,0.00,,CLR,0.00,647.00,VWS V14.01,2013-02-05 18:42:00,
2013-02-05 10:44:00,52.0,45.7,29.61,NNE,26,0.0,2.0,79,0.00,,CLR,0.00,264.00,VWS V14.01,2013-02-05 18:44:00,
2013-02-05 10:46:00,52.3,45.7,29.62,NW,315,1.0,3.0,78,0.00,,CLR,0.00,339.00,VWS V14.01,2013-02-05 18:46:00,
2013-02-05 10:47:00,52.3,45.7,29.62,West,264,3.0,3.0,78,0.00,,CLR,0.00,424.00,VWS V14.01,2013-02-05 18:47:00,
2013-02-05 10:49:00,52.4,44.7,29.61,West,261,0.0,3.0,75,0.00,,CLR,0.00,584.00,VWS V14.01,2013-02-05 18:49:00,
2013-02-05 10:50:00,52.4,44.7,29.61,West,261,0.0,3.0,75,0.00,,CLR,0.00,584.00,VWS V14.01,2013-02-05 18:50:00,
2013-02-05 10:51:00,52.4,44.7,29.61,West,261,0.0,0.0,75,0.00,,CLR,0.00,431.00,VWS V14.01,2013-02-05 18:51:00,
2013-02-05 10:52:00,52.5,44.8,29.61,West,261,0.0,0.0,75,0.00,,CLR,0.00,418.00,VWS V14.01,2013-02-05 18:52:00,
2013-02-05 10:54:00,52.7,45.4,29.61,West,261,0.0,1.0,76,0.00,,CLR,0.00,455.00,VWS V14.01,2013-02-05 18:54:00,
2013-02-05 10:56:00,53.0,45.3,29.62,North,360,3.0,4.0,75,0.00,,CLR,0.00,309.00,VWS V14.01,2013-02-05 18:56:00,
2013-02-05 10:57:00,53.0,45.3,29.62,North,355,3.0,4.0,75,0.00,,CLR,0.00,309.00,VWS V14.01,2013-02-05 18:57:00,
2013-02-05 10:59:00,52.9,45.5,29.61,North,5,3.0,4.0,76,0.00,,CLR,0.00,330.00,VWS V14.01,2013-02-05 18:59:00,
2013-02-05 11:00:00,52.9,45.2,29.61,North,355,2.0,4.0,75,0.00,,CLR,0.00,575.00,VWS V14.01,2013-02-05 19:00:00,
2013-02-05 11:01:00,52.7,45.0,29.61,North,355,0.0,2.0,75,0.00,,CLR,0.00,575.00,VWS V14.01,2013-02-05 19:01:00,
2013-02-05 11:02:00,52.7,45.0,29.61,North,355,3.0,3.0,75,0.00,,CLR,0.00,575.00,VWS V14.01,2013-02-05 19:02:00,
2013-02-05 11:04:00,52.6,44.9,29.61,North,355,0.0,3.0,75,0.00,,CLR,0.00,374.00,VWS V14.01,2013-02-05 19:04:00,
2013-02-05 11:05:00,52.6,44.9,29.61,North,355,0.0,3.0,75,0.00,,CLR,0.00,374.00,VWS V14.01,2013-02-05 19:05:00,
2013-02-05 11:06:00,52.7,45.0,29.61,East,94,0.0,3.0,75,0.00,,CLR,0.00,571.00,VWS V14.01,2013-02-05 19:06:00,
2013-02-05 11:07:00,52.7,45.4,29.61,East,94,0.0,3.0,76,0.00,,CLR,0.00,571.00,VWS V14.01,2013-02-05 19:07:00,
2013-02-05 11:09:00,52.9,45.9,29.61,East,94,0.0,3.0,77,0.00,,CLR,0.00,578.00,VWS V14.01,2013-02-05 19:09:00,
2013-02-05 11:10:00,53.0,46.0,29.61,East,94,0.0,3.0,77,0.00,,CLR,0.00,578.00,VWS V14.01,2013-02-05 19:10:00,
2013-02-05 11:11:00,53.1,45.4,29.61,East,92,1.0,4.0,75,0.00,,CLR,0.00,534.00,VWS V14.01,2013-02-05 19:11:00,
2013-02-05 11:12:00,53.2,45.5,29.61,East,92,0.0,4.0,75,0.00,,CLR,0.00,534.00,VWS V14.01,2013-02-05 19:12:00,
2013-02-05 11:14:00,53.2,45.1,29.61,North,9,2.0,4.0,74,0.00,,CLR,0.00,476.00,VWS V14.01,2013-02-05 19:14:00,
2013-02-05 11:15:00,53.3,45.2,29.61,North,9,1.0,4.0,74,0.00,,CLR,0.00,490.00,VWS V14.01,2013-02-05 19:15:00,
2013-02-05 11:17:00,53.2,45.1,29.61,NNW,347,2.0,4.0,74,0.00,,CLR,0.00,369.00,VWS V14.01,2013-02-05 19:17:00,
2013-02-05 11:19:00,53.3,45.2,29.61,NNW,348,3.0,5.0,74,0.00,,CLR,0.00,346.00,VWS V14.01,2013-02-05 19:19:00,
2013-02-05 11:20:00,53.3,45.2,29.61,NNW,348,2.0,5.0,74,0.00,,CLR,0.00,346.00,VWS V14.01,2013-02-05 19:20:00,
2013-02-05 11:22:00,53.2,45.1,29.61,NNE,17,0.0,4.0,74,0.00,,CLR,0.00,350.00,VWS V14.01,2013-02-05 19:22:00,
2013-02-05 11:25:00,53.0,45.3,29.61,NNE,24,0.0,4.0,75,0.00,,CLR,0.00,350.00,VWS V14.01,2013-02-05 19:25:00,
2013-02-05 11:27:00,53.0,45.0,29.61,SSE,157,2.0,4.0,74,0.00,,CLR,0.00,383.00,VWS V14.01,2013-02-05 19:27:00,
2013-02-05 11:30:00,52.7,45.0,29.61,SSE,163,0.0,4.0,75,0.00,,CLR,0.00,376.00,VWS V14.01,2013-02-05 19:30:00,
2013-02-05 11:32:00,52.6,45.3,29.61,SSE,163,0.0,1.0,76,0.00,,CLR,0.00,390.00,VWS V14.01,2013-02-05 19:32:00,
2013-02-05 11:35:00,52.7,45.4,29.61,SSE,163,0.0,1.0,76,0.00,,CLR,0.00,432.00,VWS V14.01,2013-02-05 19:35:00,
2013-02-05 11:37:00,52.9,45.5,29.61,SSE,163,1.0,1.0,76,0.00,,CLR,0.00,410.00,VWS V14.01,2013-02-05 19:37:00,
2013-02-05 11:40:00,53.3,45.9,29.61,SSE,163,0.0,0.0,76,0.00,,CLR,0.00,406.00,VWS V14.01,2013-02-05 19:40:00,
2013-02-05 11:42:00,53.6,45.9,29.60,SSE,163,1.0,1.0,75,0.00,,CLR,0.00,439.00,VWS V14.01,2013-02-05 19:42:00,
2013-02-05 11:45:00,53.9,45.8,29.60,NNW,340,3.0,3.0,74,0.00,,CLR,0.00,482.00,VWS V14.01,2013-02-05 19:45:00,
2013-02-05 11:47:00,54.1,45.7,29.60,WSW,257,2.0,4.0,73,0.00,,CLR,0.00,476.00,VWS V14.01,2013-02-05 19:47:00,
2013-02-05 11:50:00,54.2,45.8,29.60,WSW,257,0.0,0.0,73,0.00,,CLR,0.00,533.00,VWS V14.01,2013-02-05 19:50:00,
2013-02-05 11:52:00,54.3,45.5,29.60,WNW,297,1.0,1.0,72,0.00,,CLR,0.00,566.00,VWS V14.01,2013-02-05 19:52:00,
2013-02-05 11:55:00,54.6,45.8,29.60,SE,128,4.0,5.0,72,0.00,,CLR,0.00,434.00,VWS V14.01,2013-02-05 19:55:00,
2013-02-05 11:57:00,54.5,45.3,29.59,South,169,0.0,5.0,71,0.00,,CLR,0.00,417.00,VWS V14.01,2013-02-05 19:57:00,
2013-02-05 12:00:00,54.4,45.2,29.59,SE,124,0.0,0.0,71,0.00,,CLR,0.00,394.00,VWS V14.01,2013-02-05 20:00:00,
2013-02-05 12:03:00,54.3,45.1,29.59,SE,124,0.0,1.0,71,0.00,,CLR,0.00,392.00,VWS V14.01,2013-02-05 20:03:00,
2013-02-05 12:05:00,54.4,45.6,29.59,SE,124,0.0,1.0,72,0.00,,CLR,0.00,357.00,VWS V14.01,2013-02-05 20:05:00,
2013-02-05 12:06:00,54.4,45.6,29.59,SE,124,0.0,1.0,72,0.00,,CLR,0.00,357.00,VWS V14.01,2013-02-05 20:06:00,
2013-02-05 12:08:00,54.4,45.2,29.59,SE,124,1.0,2.0,71,0.00,,CLR,0.00,380.00,VWS V14.01,2013-02-05 20:08:00,
2013-02-05 12:10:00,54.3,45.1,29.59,East,86,0.0,0.0,71,0.00,,CLR,0.00,378.00,VWS V14.01,2013-02-05 20:10:00,
2013-02-05 12:11:00,54.3,45.1,29.59,East,86,0.0,0.0,71,0.00,,CLR,0.00,378.00,VWS V14.01,2013-02-05 20:11:00,
2013-02-05 12:13:00,54.4,45.6,29.59,East,86,0.0,1.0,72,0.00,,CLR,0.00,373.00,VWS V14.01,2013-02-05 20:13:00,
2013-02-05 12:15:00,54.6,45.8,29.58,East,86,0.0,1.0,72,0.00,,CLR,0.00,371.00,VWS V14.01,2013-02-05 20:15:00,
2013-02-05 12:16:00,54.7,45.9,29.58,East,86,0.0,1.0,72,0.00,,CLR,0.00,371.00,VWS V14.01,2013-02-05 20:16:00,
2013-02-05 12:18:00,54.9,46.1,29.58,East,86,0.0,1.0,72,0.00,,CLR,0.00,383.00,VWS V14.01,2013-02-05 20:18:00,
2013-02-05 12:20:00,55.2,45.6,29.58,East,86,0.0,3.0,70,0.00,,CLR,0.00,388.00,VWS V14.01,2013-02-05 20:20:00,
2013-02-05 12:21:00,55.3,45.7,29.58,East,86,0.0,3.0,70,0.00,,CLR,0.00,388.00,VWS V14.01,2013-02-05 20:21:00,
2013-02-05 12:23:00,55.3,45.7,29.58,East,88,0.0,3.0,70,0.00,,CLR,0.00,424.00,VWS V14.01,2013-02-05 20:23:00,
2013-02-05 12:26:00,55.4,45.4,29.58,WSW,242,0.0,3.0,69,0.00,,CLR,0.00,353.00,VWS V14.01,2013-02-05 20:26:00,
2013-02-05 12:28:00,55.4,45.8,29.58,SW,234,0.0,3.0,70,0.00,,CLR,0.00,334.00,VWS V14.01,2013-02-05 20:28:00,
2013-02-05 12:30:00,55.4,46.2,29.58,SE,141,0.0,3.0,71,0.00,,CLR,0.00,327.00,VWS V14.01,2013-02-05 20:30:00,
2013-02-05 12:31:00,55.4,46.5,29.58,SE,132,0.0,1.0,72,0.00,,CLR,0.00,339.00,VWS V14.01,2013-02-05 20:31:00,
2013-02-05 12:33:00,55.3,46.8,29.58,SE,135,0.0,3.0,73,0.00,,CLR,0.00,325.00,VWS V14.01,2013-02-05 20:33:00,
2013-02-05 12:34:00,55.2,46.7,29.58,SSE,162,0.0,3.0,73,0.00,,CLR,0.00,316.00,VWS V14.01,2013-02-05 20:34:00,
2013-02-05 12:36:00,55.1,47.0,29.58,ESE,119,2.0,6.0,74,0.00,,CLR,0.00,308.00,VWS V14.01,2013-02-05 20:36:00,
2013-02-05 12:38:00,54.8,46.7,29.58,SE,139,3.0,6.0,74,0.00,,CLR,0.00,311.00,VWS V14.01,2013-02-05 20:38:00,
2013-02-05 12:39:00,54.7,46.6,29.58,SE,136,0.0,6.0,74,0.00,,CLR,0.00,315.00,VWS V14.01,2013-02-05 20:39:00,
2013-02-05 12:40:00,54.6,46.5,29.58,ESE,112,0.0,6.0,74,0.00,,CLR,0.00,318.00,VWS V14.01,2013-02-05 20:40:00,
2013-02-05 12:41:00,54.4,46.7,29.58,SSE,161,2.0,4.0,75,0.00,,CLR,0.00,323.00,VWS V14.01,2013-02-05 20:41:00,
2013-02-05 12:43:00,54.0,46.3,29.58,ESE,121,4.0,5.0,75,0.00,,CLR,0.00,329.00,VWS V14.01,2013-02-05 20:43:00,
2013-02-05 12:44:00,53.9,46.5,29.58,ESE,121,4.0,5.0,76,0.00,,CLR,0.00,364.00,VWS V14.01,2013-02-05 20:44:00,
2013-02-05 12:46:00,53.5,46.1,29.58,SE,128,3.0,5.0,76,0.00,,CLR,0.00,355.00,VWS V14.01,2013-02-05 20:46:00,
2013-02-05 12:48:00,53.2,46.2,29.58,ESE,103,1.0,6.0,77,0.00,,CLR,0.00,378.00,VWS V14.01,2013-02-05 20:48:00,
2013-02-05 12:49:00,53.2,46.2,29.58,SE,136,1.0,6.0,77,0.00,,CLR,0.00,378.00,VWS V14.01,2013-02-05 20:49:00,
2013-02-05 12:50:00,53.1,46.4,29.58,ESE,120,5.0,6.0,78,0.00,,CLR,0.00,461.00,VWS V14.01,2013-02-05 20:50:00,
2013-02-05 12:51:00,53.0,46.3,29.58,SE,127,0.0,6.0,78,0.00,,CLR,0.00,374.00,VWS V14.01,2013-02-05 20:51:00,
2013-02-05 12:53:00,53.0,46.3,29.58,SSE,155,0.0,6.0,78,0.00,,CLR,0.00,371.00,VWS V14.01,2013-02-05 20:53:00,
2013-02-05 12:54:00,53.0,46.3,29.58,SSE,155,0.0,6.0,78,0.00,,CLR,0.00,425.00,VWS V14.01,2013-02-05 20:54:00,
2013-02-05 12:56:00,53.1,46.4,29.58,SSE,164,0.0,6.0,78,0.00,,CLR,0.00,408.00,VWS V14.01,2013-02-05 20:56:00,
2013-02-05 12:59:00,53.2,46.5,29.57,SSE,155,2.0,6.0,78,0.00,,CLR,0.00,338.00,VWS V14.01,2013-02-05 20:59:00,
2013-02-05 13:00:00,53.2,46.5,29.57,SE,134,0.0,6.0,78,0.00,,CLR,0.00,318.00,VWS V14.01,2013-02-05 21:00:00,
2013-02-05 13:01:00,53.2,46.2,29.57,SE,126,1.0,3.0,77,0.00,,CLR,0.00,320.00,VWS V14.01,2013-02-05 21:01:00,
2013-02-05 13:02:00,53.2,46.5,29.57,SE,126,0.0,3.0,78,0.00,,CLR,0.00,320.00,VWS V14.01,2013-02-05 21:02:00,
2013-02-05 13:04:00,53.2,46.5,29.57,SE,126,0.0,3.0,78,0.00,,CLR,0.00,336.00,VWS V14.01,2013-02-05 21:04:00,
2013-02-05 13:06:00,53.2,46.5,29.57,SE,125,0.0,4.0,78,0.00,,CLR,0.00,299.00,VWS V14.01,2013-02-05 21:06:00,
2013-02-05 13:07:00,53.3,46.6,29.57,ESE,118,1.0,4.0,78,0.00,,CLR,0.00,299.00,VWS V14.01,2013-02-05 21:07:00,
2013-02-05 13:09:00,53.3,46.6,29.57,ESE,122,0.0,4.0,78,0.00,,CLR,0.00,360.00,VWS V14.01,2013-02-05 21:09:00,
2013-02-05 13:10:00,53.3,46.6,29.57,SE,131,2.0,4.0,78,0.00,,CLR,0.00,359.00,VWS V14.01,2013-02-05 21:10:00,
2013-02-05 13:11:00,53.2,46.5,29.58,ESE,115,4.0,6.0,78,0.00,,CLR,0.00,336.00,VWS V14.01,2013-02-05 21:11:00,
2013-02-05 13:12:00,53.2,46.5,29.57,SE,131,3.0,6.0,78,0.00,,CLR,0.00,323.00,VWS V14.01,2013-02-05 21:12:00,
2013-02-05 13:14:00,53.0,46.3,29.57,South,186,0.0,6.0,78,0.00,,CLR,0.00,304.00,VWS V14.01,2013-02-05 21:14:00,
2013-02-05 13:17:00,52.7,46.4,29.57,SSE,152,2.0,6.0,79,0.00,,CLR,0.00,311.00,VWS V14.01,2013-02-05 21:17:00,
2013-02-05 13:19:00,52.7,46.4,29.57,ESE,119,1.0,6.0,79,0.00,,CLR,0.00,281.00,VWS V14.01,2013-02-05 21:19:00,
2013-02-05 13:20:00,52.6,46.3,29.57,South,180,0.0,6.0,79,0.00,,CLR,0.00,294.00,VWS V14.01,2013-02-05 21:20:00,
2013-02-05 13:22:00,52.7,46.4,29.57,SSE,149,2.0,2.0,79,0.00,,CLR,0.00,274.00,VWS V14.01,2013-02-05 21:22:00,
2013-02-05 13:24:00,52.7,46.4,29.57,ESE,119,2.0,4.0,79,0.00,,CLR,0.00,306.00,VWS V14.01,2013-02-05 21:24:00,
2013-02-05 13:25:00,52.7,46.4,29.57,ESE,121,0.0,6.0,79,0.00,,CLR,0.00,309.00,VWS V14.01,2013-02-05 21:25:00,
2013-02-05 13:27:00,52.7,46.4,29.57,SE,128,2.0,6.0,79,0.00,,CLR,0.00,329.00,VWS V14.01,2013-02-05 21:27:00,
2013-02-05 13:29:00,52.7,46.4,29.57,SE,130,0.0,6.0,79,0.00,,CLR,0.00,352.00,VWS V14.01,2013-02-05 21:29:00,
2013-02-05 13:30:00,52.7,46.7,29.57,SE,130,0.0,6.0,80,0.00,,CLR,0.00,332.00,VWS V14.01,2013-02-05 21:30:00,
2013-02-05 13:32:00,52.8,46.5,29.57,South,173,0.0,5.0,79,0.00,,CLR,0.00,332.00,VWS V14.01,2013-02-05 21:32:00,
2013-02-05 13:34:00,52.8,46.5,29.57,SE,132,4.0,5.0,79,0.00,,CLR,0.00,315.00,VWS V14.01,2013-02-05 21:34:00,
2013-02-05 13:35:00,52.8,46.5,29.57,SSE,155,1.0,5.0,79,0.00,,CLR,0.00,292.00,VWS V14.01,2013-02-05 21:35:00,
2013-02-05 13:37:00,52.7,46.4,29.57,SSE,163,4.0,6.0,79,0.00,,CLR,0.00,297.00,VWS V14.01,2013-02-05 21:37:00,
2013-02-05 13:39:00,52.6,46.3,29.57,SSE,154,2.0,6.0,79,0.00,,CLR,0.00,274.00,VWS V14.01,2013-02-05 21:39:00,
2013-02-05 13:40:00,52.6,46.3,29.57,South,173,2.0,3.0,79,0.00,,CLR,0.00,276.00,VWS V14.01,2013-02-05 21:40:00,
2013-02-05 13:42:00,52.6,46.3,29.57,SE,140,0.0,4.0,79,0.00,,CLR,0.00,246.00,VWS V14.01,2013-02-05 21:42:00,
2013-02-05 13:44:00,52.6,46.6,29.57,SSE,158,0.0,4.0,80,0.00,,CLR,0.00,234.00,VWS V14.01,2013-02-05 21:44:00,
2013-02-05 13:45:00,52.6,46.3,29.57,SE,134,2.0,4.0,79,0.00,,CLR,0.00,214.00,VWS V14.01,2013-02-05 21:45:00,
2013-02-05 13:47:00,52.6,46.6,29.57,SE,140,0.0,4.0,80,0.00,,CLR,0.00,206.00,VWS V14.01,2013-02-05 21:47:00,
2013-02-05 13:48:00,52.5,46.5,29.57,SE,140,0.0,4.0,80,0.00,,CLR,0.00,206.00,VWS V14.01,2013-02-05 21:48:00,
2013-02-05 13:49:00,52.6,46.6,29.57,SSE,160,0.0,4.0,80,0.00,,CLR,0.00,207.00,VWS V14.01,2013-02-05 21:49:00,
2013-02-05 13:50:00,52.5,46.5,29.56,SSE,161,0.0,1.0,80,0.00,,CLR,0.00,207.00,VWS V14.01,2013-02-05 21:50:00,
2013-02-05 13:52:00,52.5,46.2,29.57,South,180,1.0,3.0,79,0.00,,CLR,0.00,188.00,VWS V14.01,2013-02-05 21:52:00,
2013-02-05 13:53:00,52.5,46.2,29.57,SSE,159,0.0,3.0,79,0.00,,CLR,0.00,174.00,VWS V14.01,2013-02-05 21:53:00,
2013-02-05 13:54:00,52.4,46.1,29.57,South,169,0.0,3.0,79,0.00,,CLR,0.00,167.00,VWS V14.01,2013-02-05 21:54:00,
2013-02-05 13:56:00,52.4,46.1,29.57,SE,134,0.0,4.0,79,0.00,,CLR,0.00,172.00,VWS V14.01,2013-02-05 21:56:00,
2013-02-05 13:57:00,52.3,46.3,29.57,South,182,4.0,4.0,80,0.00,,CLR,0.00,185.00,VWS V14.01,2013-02-05 21:57:00,
2013-02-05 13:58:00,52.2,46.2,29.57,South,171,1.0,4.0,80,0.00,,CLR,0.00,183.00,VWS V14.01,2013-02-05 21:58:00,
2013-02-05 13:59:00,52.2,46.2,29.57,ESE,121,0.0,4.0,80,0.00,,CLR,0.00,192.00,VWS V14.01,2013-02-05 21:59:00,
2013-02-05 14:00:00,52.1,46.1,29.57,ESE,121,1.0,1.0,80,0.00,,CLR,0.00,248.00,VWS V14.01,2013-02-05 22:00:00,
2013-02-05 14:02:00,52.0,46.0,29.57,ESE,121,0.0,3.0,80,0.00,,CLR,0.00,206.00,VWS V14.01,2013-02-05 22:02:00,
2013-02-05 14:03:00,52.0,46.0,29.57,ESE,121,1.0,3.0,80,0.00,,CLR,0.00,199.00,VWS V14.01,2013-02-05 22:03:00,
2013-02-05 14:04:00,52.0,46.0,29.57,ESE,121,0.0,3.0,80,0.00,,CLR,0.00,230.00,VWS V14.01,2013-02-05 22:04:00,
2013-02-05 14:06:00,52.0,46.4,29.57,ESE,121,0.0,3.0,81,0.00,,CLR,0.00,287.00,VWS V14.01,2013-02-05 22:06:00,
2013-02-05 14:08:00,52.1,46.5,29.57,SSE,167,0.0,3.0,81,0.00,,CLR,0.00,237.00,VWS V14.01,2013-02-05 22:08:00,
2013-02-05 14:09:00,52.1,46.5,29.57,SSE,164,0.0,3.0,81,0.00,,CLR,0.00,260.00,VWS V14.01,2013-02-05 22:09:00,
2013-02-05 14:10:00,52.1,46.1,29.57,SE,130,5.0,5.0,80,0.00,,CLR,0.00,329.00,VWS V14.01,2013-02-05 22:10:00,
2013-02-05 14:11:00,52.2,46.2,29.57,SE,132,1.0,5.0,80,0.00,,CLR,0.00,329.00,VWS V14.01,2013-02-05 22:11:00,
2013-02-05 14:13:00,52.3,46.3,29.57,SE,128,0.0,5.0,80,0.00,,CLR,0.00,587.00,VWS V14.01,2013-02-05 22:13:00,
2013-02-05 14:14:00,52.3,46.3,29.57,SE,140,0.0,5.0,80,0.00,,CLR,0.00,445.00,VWS V14.01,2013-02-05 22:14:00,
2013-02-05 14:16:00,52.5,46.5,29.57,SSE,162,0.0,5.0,80,0.00,,CLR,0.00,424.00,VWS V14.01,2013-02-05 22:16:00,
2013-02-05 14:18:00,52.7,46.7,29.57,SSE,162,0.0,5.0,80,0.00,,CLR,0.00,399.00,VWS V14.01,2013-02-05 22:18:00,
2013-02-05 14:19:00,52.8,46.5,29.57,SSE,162,0.0,5.0,79,0.00,,CLR,0.00,399.00,VWS V14.01,2013-02-05 22:19:00,
2013-02-05 14:20:00,52.9,46.6,29.57,SSE,162,0.0,5.0,79,0.00,,CLR,0.00,399.00,VWS V14.01,2013-02-05 22:20:00,
2013-02-05 14:21:00,53.0,46.7,29.57,SSE,162,0.0,1.0,79,0.00,,CLR,0.00,311.00,VWS V14.01,2013-02-05 22:21:00,
2013-02-05 14:23:00,53.1,46.8,29.57,ESE,123,3.0,3.0,79,0.00,,CLR,0.00,323.00,VWS V14.01,2013-02-05 22:23:00,
2013-02-05 14:24:00,53.2,46.9,29.57,ESE,123,1.0,4.0,79,0.00,,CLR,0.00,346.00,VWS V14.01,2013-02-05 22:24:00,
2013-02-05 14:26:00,53.3,47.0,29.57,SE,128,0.0,4.0,79,0.00,,CLR,0.00,306.00,VWS V14.01,2013-02-05 22:26:00,
2013-02-05 14:28:00,53.4,47.1,29.57,SE,128,0.0,4.0,79,0.00,,CLR,0.00,357.00,VWS V14.01,2013-02-05 22:28:00,
2013-02-05 14:29:00,53.4,47.1,29.57,SE,128,0.0,4.0,79,0.00,,CLR,0.00,330.00,VWS V14.01,2013-02-05 22:29:00,
2013-02-05 14:30:00,53.5,46.8,29.57,ESE,121,0.0,4.0,78,0.00,,CLR,0.00,329.00,VWS V14.01,2013-02-05 22:30:00,
2013-02-05 14:31:00,53.5,46.8,29.56,ESE,121,0.0,1.0,78,0.00,,CLR,0.00,329.00,VWS V14.01,2013-02-05 22:31:00,
2013-02-05 14:33:00,53.7,47.3,29.56,ESE,121,3.0,5.0,79,0.00,,CLR,0.00,329.00,VWS V14.01,2013-02-05 22:33:00,
2013-02-05 14:34:00,53.7,47.0,29.56,ESE,121,2.0,5.0,78,0.00,,CLR,0.00,329.00,VWS V14.01,2013-02-05 22:34:00,
2013-02-05 14:36:00,53.7,47.0,29.56,ESE,121,0.0,5.0,78,0.00,,CLR,0.00,329.00,VWS V14.01,2013-02-05 22:36:00,
2013-02-05 14:38:00,53.8,47.1,29.56,ESE,121,0.0,5.0,78,0.00,,CLR,0.00,255.00,VWS V14.01,2013-02-05 22:38:00,
2013-02-05 14:39:00,53.9,47.2,29.56,ESE,121,0.0,5.0,78,0.00,,CLR,0.00,255.00,VWS V14.01,2013-02-05 22:39:00,
2013-02-05 14:40:00,54.0,47.3,29.56,ESE,121,0.0,5.0,78,0.00,,CLR,0.00,452.00,VWS V14.01,2013-02-05 22:40:00,
2013-02-05 14:41:00,54.1,47.1,29.56,ESE,121,0.0,0.0,77,0.00,,CLR,0.00,452.00,VWS V14.01,2013-02-05 22:41:00,
2013-02-05 14:43:00,54.5,47.5,29.56,ESE,121,1.0,1.0,77,0.00,,CLR,0.00,427.00,VWS V14.01,2013-02-05 22:43:00,
2013-02-05 14:44:00,54.6,47.2,29.57,ESE,121,1.0,1.0,76,0.00,,CLR,0.00,383.00,VWS V14.01,2013-02-05 22:44:00,
2013-02-05 14:46:00,54.9,47.5,29.56,WSW,243,2.0,3.0,76,0.00,,CLR,0.00,392.00,VWS V14.01,2013-02-05 22:46:00,
2013-02-05 14:48:00,55.2,47.1,29.56,SE,126,1.0,3.0,74,0.00,,CLR,0.00,439.00,VWS V14.01,2013-02-05 22:48:00,
2013-02-05 14:49:00,55.3,47.2,29.56,NNE,23,4.0,4.0,74,0.00,,CLR,0.00,439.00,VWS V14.01,2013-02-05 22:49:00,
2013-02-05 14:50:00,55.5,48.1,29.56,NNW,331,3.0,5.0,76,0.00,,CLR,0.00,439.00,VWS V14.01,2013-02-05 22:50:00,
2013-02-05 14:51:00,55.6,47.5,29.57,NNW,327,1.0,4.0,74,0.00,,CLR,0.00,439.00,VWS V14.01,2013-02-05 22:51:00,
2013-02-05 14:54:00,55.5,46.6,29.57,WNW,283,4.0,4.0,72,0.00,,CLR,0.00,369.00,VWS V14.01,2013-02-05 22:54:00,
2013-02-05 14:55:00,55.5,46.6,29.57,WSW,257,1.0,9.0,72,0.00,,CLR,0.00,427.00,VWS V14.01,2013-02-05 22:55:00,
2013-02-05 14:56:00,55.6,46.4,29.56,West,281,3.0,9.0,71,0.00,,CLR,0.00,429.00,VWS V14.01,2013-02-05 22:56:00,
2013-02-05 14:59:00,56.0,46.7,29.57,SW,227,5.0,9.0,71,0.00,,CLR,0.00,601.00,VWS V14.01,2013-02-05 22:59:00,
2013-02-05 15:00:00,56.3,46.7,29.56,South,172,1.0,1.0,70,0.00,,CLR,0.00,626.00,VWS V14.01,2013-02-05 23:00:00,
2013-02-05 15:01:00,56.8,46.8,29.57,WSW,244,2.0,11.0,69,0.00,,CLR,0.00,573.00,VWS V14.01,2013-02-05 23:01:00,
2013-02-05 15:04:00,57.3,46.8,29.57,WSW,239,7.0,11.0,68,0.00,,CLR,0.00,645.00,VWS V14.01,2013-02-05 23:04:00,
2013-02-05 15:05:00,57.5,47.0,29.57,SW,219,10.0,11.0,68,0.00,,CLR,0.00,645.00,VWS V14.01,2013-02-05 23:05:00,
2013-02-05 15:06:00,57.7,46.8,29.57,WSW,248,2.0,11.0,67,0.00,,CLR,0.00,645.00,VWS V14.01,2013-02-05 23:06:00,
2013-02-05 15:09:00,57.9,46.6,29.57,WNW,291,6.0,11.0,66,0.00,,CLR,0.00,619.00,VWS V14.01,2013-02-05 23:09:00,
2013-02-05 15:10:00,58.0,46.7,29.57,WSW,244,4.0,4.0,66,0.00,,CLR,0.00,619.00,VWS V14.01,2013-02-05 23:10:00,
2013-02-05 15:12:00,58.0,46.7,29.57,WSW,245,0.0,6.0,66,0.00,,CLR,0.00,338.00,VWS V14.01,2013-02-05 23:12:00,
2013-02-05 15:14:00,58.0,46.7,29.57,WNW,293,0.0,6.0,66,0.00,,CLR,0.00,489.00,VWS V14.01,2013-02-05 23:14:00,
2013-02-05 15:15:00,58.0,47.1,29.57,WNW,293,0.0,6.0,67,0.00,,CLR,0.00,483.00,VWS V14.01,2013-02-05 23:15:00,
2013-02-05 15:18:00,58.0,46.7,29.57,WSW,255,0.0,13.0,66,0.00,,CLR,0.00,404.00,VWS V14.01,2013-02-05 23:18:00,
2013-02-05 15:19:00,57.9,47.0,29.57,WSW,255,0.0,13.0,67,0.00,,CLR,0.00,355.00,VWS V14.01,2013-02-05 23:19:00,
2013-02-05 15:20:00,58.0,47.1,29.57,NW,313,2.0,4.0,67,0.00,,CLR,0.00,315.00,VWS V14.01,2013-02-05 23:20:00,
2013-02-05 15:23:00,57.9,47.0,29.57,WSW,246,0.0,5.0,67,0.00,,CLR,0.00,200.00,VWS V14.01,2013-02-05 23:23:00,
2013-02-05 15:24:00,57.8,46.9,29.57,West,267,1.0,5.0,67,0.00,,CLR,0.00,200.00,VWS V14.01,2013-02-05 23:24:00,
2013-02-05 15:25:00,57.8,46.9,29.57,WNW,290,0.0,5.0,67,0.00,,CLR,0.00,359.00,VWS V14.01,2013-02-05 23:25:00,
2013-02-05 15:28:00,57.4,46.5,29.57,WNW,282,1.0,11.0,67,0.00,,CLR,0.00,294.00,VWS V14.01,2013-02-05 23:28:00,
2013-02-05 15:29:00,57.3,46.5,29.57,SSW,194,6.0,11.0,67,0.00,,CLR,0.00,294.00,VWS V14.01,2013-02-05 23:29:00,
2013-02-05 15:30:00,57.2,46.4,29.57,WSW,252,3.0,11.0,67,0.00,,CLR,0.00,294.00,VWS V14.01,2013-02-05 23:30:00,
2013-02-05 15:34:00,57.0,46.9,29.57,SW,235,2.0,11.0,69,0.00,,CLR,0.00,388.00,VWS V14.01,2013-02-05 23:34:00,
2013-02-05 15:35:00,57.0,46.9,29.57,West,277,2.0,11.0,69,0.00,,CLR,0.00,355.00,VWS V14.01,2013-02-05 23:35:00,
2013-02-05 15:36:00,56.9,46.8,29.57,WNW,289,5.0,11.0,69,0.00,,CLR,0.00,301.00,VWS V14.01,2013-02-05 23:36:00,
2013-02-05 15:39:00,56.9,46.8,29.57,West,270,2.0,11.0,69,0.00,,CLR,0.00,278.00,VWS V14.01,2013-02-05 23:39:00,
2013-02-05 15:40:00,56.7,46.7,29.57,WSW,252,1.0,8.0,69,0.00,,CLR,0.00,288.00,VWS V14.01,2013-02-05 23:40:00,
2013-02-05 15:41:00,56.6,46.6,29.57,SW,232,5.0,8.0,69,0.00,,CLR,0.00,279.00,VWS V14.01,2013-02-05 23:41:00,
2013-02-05 15:44:00,56.3,46.7,29.57,West,276,1.0,11.0,70,0.00,,CLR,0.00,234.00,VWS V14.01,2013-02-05 23:44:00,
2013-02-05 15:45:00,56.3,46.7,29.58,West,269,3.0,11.0,70,0.00,,CLR,0.00,278.00,VWS V14.01,2013-02-05 23:45:00,
2013-02-05 15:46:00,56.1,46.5,29.58,NW,307,4.0,11.0,70,0.00,,CLR,0.00,265.00,VWS V14.01,2013-02-05 23:46:00,
2013-02-05 15:49:00,55.8,46.5,29.58,WNW,302,0.0,11.0,71,0.00,,CLR,0.00,295.00,VWS V14.01,2013-02-05 23:49:00,
2013-02-05 15:50:00,55.7,46.5,29.58,SW,221,6.0,6.0,71,0.00,,CLR,0.00,295.00,VWS V14.01,2013-02-05 23:50:00,
2013-02-05 15:51:00,55.7,46.5,29.58,NW,309,0.0,6.0,71,0.00,,CLR,0.00,316.00,VWS V14.01,2013-02-05 23:51:00,
2013-02-05 15:54:00,55.7,46.8,29.58,WNW,300,0.0,6.0,72,0.00,,CLR,0.00,320.00,VWS V14.01,2013-02-05 23:54:00,
2013-02-05 15:55:00,55.7,46.8,29.57,SW,219,3.0,6.0,72,0.00,,CLR,0.00,332.00,VWS V14.01,2013-02-05 23:55:00,
2013-02-05 15:56:00,55.7,46.5,29.58,WSW,242,0.0,6.0,71,0.00,,CLR,0.00,316.00,VWS V14.01,2013-02-05 23:56:00,
2013-02-05 15:59:00,55.9,46.7,29.58,WNW,298,1.0,6.0,71,0.00,,CLR,0.00,323.00,VWS V14.01,2013-02-05 23:59:00,
2013-02-05 16:00:00,55.9,46.7,29.58,WSW,245,3.0,3.0,71,0.00,,CLR,0.00,329.00,VWS V14.01,2013-02-06 00:00:00,
2013-02-05 16:01:00,56.0,46.7,29.58,WSW,257,2.0,3.0,71,0.00,,CLR,0.00,327.00,VWS V14.01,2013-02-06 00:01:00,
2013-02-05 16:04:00,56.2,46.9,29.58,SW,225,2.0,10.0,71,0.00,,CLR,0.00,315.00,VWS V14.01,2013-02-06 00:04:00,
2013-02-05 16:05:00,56.2,46.9,29.58,SW,228,0.0,10.0,71,0.00,,CLR,0.00,315.00,VWS V14.01,2013-02-06 00:05:00,
2013-02-05 16:06:00,56.2,46.9,29.58,SSW,210,5.0,11.0,71,0.00,,CLR,0.00,316.00,VWS V14.01,2013-02-06 00:06:00,
2013-02-05 16:09:00,56.1,46.8,29.58,WNW,298,2.0,11.0,71,0.00,,CLR,0.00,279.00,VWS V14.01,2013-02-06 00:09:00,
2013-02-05 16:10:00,56.1,46.8,29.58,NW,304,0.0,11.0,71,0.00,,CLR,0.00,279.00,VWS V14.01,2013-02-06 00:10:00,
2013-02-05 16:11:00,56.0,46.7,29.57,WSW,246,1.0,7.0,71,0.00,,CLR,0.00,264.00,VWS V14.01,2013-02-06 00:11:00,
2013-02-05 16:15:00,55.8,46.9,29.58,WSW,246,5.0,10.0,72,0.00,,CLR,0.00,262.00,VWS V14.01,2013-02-06 00:15:00,
2013-02-05 16:16:00,55.6,46.7,29.58,WSW,245,5.0,11.0,72,0.00,,CLR,0.00,223.00,VWS V14.01,2013-02-06 00:16:00,
2013-02-05 16:20:00,55.4,46.9,29.58,WNW,292,1.0,11.0,73,0.00,,CLR,0.00,246.00,VWS V14.01,2013-02-06 00:20:00,
2013-02-05 16:21:00,55.4,46.9,29.58,NW,317,1.0,6.0,73,0.00,,CLR,0.00,220.00,VWS V14.01,2013-02-06 00:21:00,
2013-02-05 16:25:00,55.4,46.9,29.58,WNW,293,2.0,6.0,73,0.00,,CLR,0.00,218.00,VWS V14.01,2013-02-06 00:25:00,
2013-02-05 16:26:00,55.4,46.9,29.58,WNW,287,2.0,6.0,73,0.00,,CLR,0.00,199.00,VWS V14.01,2013-02-06 00:26:00,
2013-02-05 16:30:00,55.3,46.8,29.58,WSW,239,4.0,6.0,73,0.00,,CLR,0.00,171.00,VWS V14.01,2013-02-06 00:30:00,
2013-02-05 16:31:00,55.2,46.7,29.58,WNW,293,1.0,6.0,73,0.00,,CLR,0.00,165.00,VWS V14.01,2013-02-06 00:31:00,
2013-02-05 16:35:00,54.9,46.8,29.58,WNW,296,1.0,8.0,74,0.00,,CLR,0.00,132.00,VWS V14.01,2013-02-06 00:35:00,
2013-02-05 16:36:00,54.7,46.6,29.58,West,264,1.0,9.0,74,0.00,,CLR,0.00,113.00,VWS V14.01,2013-02-06 00:36:00,
2013-02-05 16:40:00,54.2,46.5,29.58,West,264,5.0,9.0,75,0.00,,CLR,0.00,58.00,VWS V14.01,2013-02-06 00:40:00,
2013-02-05 16:41:00,54.1,46.4,29.58,WSW,247,2.0,9.0,75,0.00,,CLR,0.00,58.00,VWS V14.01,2013-02-06 00:41:00,
2013-02-05 16:45:00,53.7,46.3,29.59,West,276,3.0,9.0,76,0.00,,CLR,0.00,97.00,VWS V14.01,2013-02-06 00:45:00,
2013-02-05 16:46:00,53.7,46.3,29.59,West,281,4.0,9.0,76,0.00,,CLR,0.00,65.00,VWS V14.01,2013-02-06 00:46:00,
2013-02-05 16:50:00,53.4,46.4,29.59,WSW,252,4.0,5.0,77,0.00,,CLR,0.00,63.00,VWS V14.01,2013-02-06 00:50:00,
2013-02-05 16:51:00,53.3,46.3,29.59,SSW,200,0.0,5.0,77,0.00,,CLR,0.00,62.00,VWS V14.01,2013-02-06 00:51:00,
2013-02-05 16:55:00,53.1,46.1,29.59,NNW,348,0.0,9.0,77,0.00,,CLR,0.00,60.00,VWS V14.01,2013-02-06 00:55:00,
2013-02-05 16:56:00,53.0,46.0,29.59,WNW,289,1.0,11.0,77,0.00,,CLR,0.00,54.00,VWS V14.01,2013-02-06 00:56:00,
2013-02-05 17:00:00,52.8,46.1,29.59,West,279,1.0,1.0,78,0.00,,CLR,0.00,46.00,VWS V14.01,2013-02-06 01:00:00,
2013-02-05 17:01:00,52.7,46.0,29.59,NW,306,4.0,4.0,78,0.00,,CLR,0.00,35.00,VWS V14.01,2013-02-06 01:01:00,
2013-02-05 17:02:00,52.6,46.0,29.59,West,276,4.0,7.0,78,0.00,,CLR,0.00,35.00,VWS V14.01,2013-02-06 01:02:00,
2013-02-05 17:05:00,52.4,46.1,29.59,North,355,0.0,7.0,79,0.00,,CLR,0.00,26.00,VWS V14.01,2013-02-06 01:05:00,
2013-02-05 17:07:00,52.4,46.1,29.59,WNW,292,0.0,7.0,79,0.00,,CLR,0.00,25.00,VWS V14.01,2013-02-06 01:07:00,
2013-02-05 17:10:00,52.2,45.9,29.59,West,265,0.0,0.0,79,0.00,,CLR,0.00,23.00,VWS V14.01,2013-02-06 01:10:00,
2013-02-05 17:12:00,52.1,45.8,29.59,West,265,0.0,0.0,79,0.00,,CLR,0.00,21.00,VWS V14.01,2013-02-06 01:12:00,
2013-02-05 17:15:00,51.9,45.9,29.59,West,265,0.0,0.0,80,0.00,,CLR,0.00,19.00,VWS V14.01,2013-02-06 01:15:00,
2013-02-05 17:17:00,51.9,45.9,29.59,WSW,253,0.0,1.0,80,0.00,,CLR,0.00,16.00,VWS V14.01,2013-02-06 01:17:00,
2013-02-05 17:20:00,51.8,45.8,29.59,West,271,2.0,3.0,80,0.00,,CLR,0.00,14.00,VWS V14.01,2013-02-06 01:20:00,
2013-02-05 17:21:00,51.7,45.7,29.59,ENE,57,1.0,3.0,80,0.00,,CLR,0.00,14.00,VWS V14.01,2013-02-06 01:21:00,
2013-02-05 17:22:00,51.7,45.7,29.59,North,9,0.0,3.0,80,0.00,,CLR,0.00,12.00,VWS V14.01,2013-02-06 01:22:00,
2013-02-05 17:25:00,51.5,45.5,29.59,West,263,1.0,4.0,80,0.00,,CLR,0.00,12.00,VWS V14.01,2013-02-06 01:25:00,
2013-02-05 17:27:00,51.5,45.9,29.59,West,263,0.0,4.0,81,0.00,,CLR,0.00,11.00,VWS V14.01,2013-02-06 01:27:00,
2013-02-05 17:28:00,51.5,45.9,29.59,West,260,1.0,4.0,81,0.00,,CLR,0.00,11.00,VWS V14.01,2013-02-06 01:28:00,
2013-02-05 17:30:00,51.4,45.8,29.59,West,271,0.0,0.0,81,0.00,,CLR,0.00,9.00,VWS V14.01,2013-02-06 01:30:00,
2013-02-05 17:32:00,51.3,45.7,29.59,West,271,0.0,1.0,81,0.00,,CLR,0.00,7.00,VWS V14.01,2013-02-06 01:32:00,
2013-02-05 17:33:00,51.3,45.7,29.59,West,271,0.0,1.0,81,0.00,,CLR,0.00,7.00,VWS V14.01,2013-02-06 01:33:00,
2013-02-05 17:35:00,51.2,45.6,29.59,West,279,2.0,4.0,81,0.00,,CLR,0.00,7.00,VWS V14.01,2013-02-06 01:35:00,
2013-02-05 17:37:00,51.2,45.6,29.59,WSW,258,0.0,4.0,81,0.00,,CLR,0.00,5.00,VWS V14.01,2013-02-06 01:37:00,
2013-02-05 17:38:00,51.2,45.6,29.59,WSW,250,5.0,5.0,81,0.00,,CLR,0.00,5.00,VWS V14.01,2013-02-06 01:38:00,
2013-02-05 17:40:00,51.1,45.8,29.59,WSW,240,0.0,0.0,82,0.00,,CLR,0.00,5.00,VWS V14.01,2013-02-06 01:40:00,
2013-02-05 17:43:00,51.0,45.7,29.59,WSW,240,0.0,1.0,82,0.00,,CLR,0.00,0.00,VWS V14.01,2013-02-06 01:43:00,
2013-02-05 17:45:00,50.9,45.6,29.58,West,269,0.0,5.0,82,0.00,,CLR,0.00,0.00,VWS V14.01,2013-02-06 01:45:00,
2013-02-05 17:48:00,50.8,45.5,29.59,NW,317,0.0,5.0,82,0.00,,CLR,0.00,0.00,VWS V14.01,2013-02-06 01:48:00,
2013-02-05 17:50:00,50.7,45.4,29.59,NNW,333,0.0,1.0,82,0.00,,CLR,0.00,0.00,VWS V14.01,2013-02-06 01:50:00,
2013-02-05 17:53:00,50.7,45.7,29.58,NNW,333,0.0,1.0,83,0.00,,CLR,0.00,0.00,VWS V14.01,2013-02-06 01:53:00,
2013-02-05 17:55:00,50.6,45.6,29.58,NNW,333,0.0,1.0,83,0.00,,CLR,0.00,0.00,VWS V14.01,2013-02-06 01:55:00,
2013-02-05 17:58:00,50.5,45.5,29.58,NNW,333,0.0,1.0,83,0.00,,CLR,0.00,0.00,VWS V14.01,2013-02-06 01:58:00,
2013-02-05 18:00:00,50.3,45.3,29.59,NNW,333,0.0,0.0,83,0.00,,CLR,0.00,0.00,VWS V14.01,2013-02-06 02:00:00,
2013-02-05 18:01:00,50.3,45.3,29.59,NNW,333,0.0,0.0,83,0.00,,CLR,0.00,0.00,VWS V14.01,2013-02-06 02:01:00,
2013-02-05 18:03:00,50.3,45.3,29.59,NNW,333,0.0,0.0,83,0.00,,CLR,0.00,0.00,VWS V14.01,2013-02-06 02:03:00,
2013-02-05 18:05:00,50.1,45.5,29.59,NNW,333,0.0,0.0,84,0.00,,CLR,0.00,0.00,VWS V14.01,2013-02-06 02:05:00,
2013-02-05 18:06:00,50.1,45.5,29.59,NNW,333,0.0,0.0,84,0.00,,CLR,0.00,0.00,VWS V14.01,2013-02-06 02:06:00,
2013-02-05 18:08:00,50.0,45.4,29.59,NNW,333,0.0,0.0,84,0.00,,CLR,0.00,0.00,VWS V14.01,2013-02-06 02:08:00,
2013-02-05 18:09:00,50.0,45.4,29.59,NNW,333,0.0,0.0,84,0.00,,CLR,0.00,0.00,VWS V14.01,2013-02-06 02:09:00,
2013-02-05 18:10:00,49.9,45.3,29.59,NNW,333,1.0,1.0,84,0.00,,CLR,0.00,0.00,VWS V14.01,2013-02-06 02:10:00,
2013-02-05 18:11:00,49.9,45.3,29.59,NNW,333,0.0,1.0,84,0.00,,CLR,0.00,0.00,VWS V14.01,2013-02-06 02:11:00,
2013-02-05 18:13:00,49.8,45.2,29.59,NW,322,0.0,2.0,84,0.00,,CLR,0.00,0.00,VWS V14.01,2013-02-06 02:13:00,
2013-02-05 18:14:00,49.8,45.2,29.59,NW,322,0.0,2.0,84,0.00,,CLR,0.00,0.00,VWS V14.01,2013-02-06 02:14:00,
2013-02-05 18:16:00,49.7,45.1,29.59,NW,322,0.0,2.0,84,0.00,,CLR,0.00,0.00,VWS V14.01,2013-02-06 02:16:00,
2013-02-05 18:18:00,49.6,45.0,29.59,West,268,0.0,2.0,84,0.00,,CLR,0.00,0.00,VWS V14.01,2013-02-06 02:18:00,
2013-02-05 18:19:00,49.6,45.0,29.59,West,268,0.0,2.0,84,0.00,,CLR,0.00,0.00,VWS V14.01,2013-02-06 02:19:00,
2013-02-05 18:20:00,49.6,45.3,29.59,West,268,2.0,2.0,85,0.00,,CLR,0.00,0.00,VWS V14.01,2013-02-06 02:20:00,
2013-02-05 18:21:00,49.6,45.3,29.59,NNE,30,0.0,2.0,85,0.00,,CLR,0.00,0.00,VWS V14.01,2013-02-06 02:21:00,
2013-02-05 18:23:00,49.5,45.2,29.59,SSE,166,0.0,2.0,85,0.00,,CLR,0.00,0.00,VWS V14.01,2013-02-06 02:23:00,
2013-02-05 18:24:00,49.5,45.2,29.59,SSE,166,0.0,2.0,85,0.00,,CLR,0.00,0.00,VWS V14.01,2013-02-06 02:24:00,
2013-02-05 18:26:00,49.4,45.1,29.59,WSW,252,0.0,2.0,85,0.00,,CLR,0.00,0.00,VWS V14.01,2013-02-06 02:26:00,
2013-02-05 18:28:00,49.4,45.1,29.60,WSW,252,0.0,2.0,85,0.00,,CLR,0.00,0.00,VWS V14.01,2013-02-06 02:28:00,
2013-02-05 18:29:00,49.4,45.1,29.60,WSW,252,0.0,2.0,85,0.00,,CLR,0.00,0.00,VWS V14.01,2013-02-06 02:29:00,
2013-02-05 18:30:00,49.4,45.1,29.59,WSW,252,0.0,2.0,85,0.00,,CLR,0.00,0.00,VWS V14.01,2013-02-06 02:30:00,
2013-02-05 18:31:00,49.3,45.0,29.59,WSW,253,1.0,1.0,85,0.00,,CLR,0.00,0.00,VWS V14.01,2013-02-06 02:31:00,
2013-02-05 18:33:00,49.3,45.0,29.59,West,279,0.0,2.0,85,0.00,,CLR,0.00,0.00,VWS V14.01,2013-02-06 02:33:00,
2013-02-05 18:34:00,49.3,45.0,29.59,West,279,0.0,2.0,85,0.00,,CLR,0.00,0.00,VWS V14.01,2013-02-06 02:34:00,
2013-02-05 18:36:00,49.2,44.9,29.59,West,270,0.0,2.0,85,0.00,,CLR,0.00,0.00,VWS V14.01,2013-02-06 02:36:00,
2013-02-05 18:39:00,49.2,44.9,29.60,West,281,0.0,2.0,85,0.00,,CLR,0.00,0.00,VWS V14.01,2013-02-06 02:39:00,
2013-02-05 18:40:00,49.2,44.9,29.59,West,281,0.0,2.0,85,0.00,,CLR,0.00,0.00,VWS V14.01,2013-02-06 02:40:00,
2013-02-05 18:41:00,49.2,44.9,29.59,West,281,0.0,0.0,85,0.00,,CLR,0.00,0.00,VWS V14.01,2013-02-06 02:41:00,
2013-02-05 18:44:00,49.2,44.9,29.60,West,281,0.0,0.0,85,0.00,,CLR,0.00,0.00,VWS V14.01,2013-02-06 02:44:00,
2013-02-05 18:46:00,49.2,45.2,29.59,WNW,286,0.0,1.0,86,0.00,,CLR,0.00,0.00,VWS V14.01,2013-02-06 02:46:00,
2013-02-05 18:47:00,49.2,45.2,29.59,WNW,286,0.0,1.0,86,0.00,,CLR,0.00,0.00,VWS V14.01,2013-02-06 02:47:00,
2013-02-05 18:49:00,49.1,45.1,29.60,WNW,286,0.0,1.0,86,0.00,,CLR,0.00,0.00,VWS V14.01,2013-02-06 02:49:00,
2013-02-05 18:50:00,49.1,45.1,29.60,WNW,286,0.0,1.0,86,0.00,,CLR,0.00,0.00,VWS V14.01,2013-02-06 02:50:00,
2013-02-05 18:51:00,49.0,44.7,29.60,WNW,288,0.0,1.0,85,0.00,,CLR,0.00,0.00,VWS V14.01,2013-02-06 02:51:00,
2013-02-05 18:52:00,49.0,44.7,29.60,WNW,288,0.0,1.0,85,0.00,,CLR,0.00,0.00,VWS V14.01,2013-02-06 02:52:00,
2013-02-05 18:54:00,49.0,45.0,29.60,WNW,288,0.0,1.0,86,0.00,,CLR,0.00,0.00,VWS V14.01,2013-02-06 02:54:00,
2013-02-05 19:00:00,48.8,44.8,29.60,WNW,292,0.0,2.0,86,0.00,,CLR,0.00,0.00,VWS V14.01,2013-02-06 03:00:00,
2013-02-05 19:10:00,48.5,44.8,29.60,WNW,292,0.0,2.0,87,0.00,,CLR,0.00,0.00,VWS V14.01,2013-02-06 03:10:00,
2013-02-05 19:20:00,48.5,44.8,29.60,NE,45,0.0,2.0,87,0.00,,CLR,0.00,0.00,VWS V14.01,2013-02-06 03:20:00,
2013-02-05 19:30:00,48.5,44.8,29.61,West,270,0.0,3.0,87,0.00,,CLR,0.00,0.00,VWS V14.01,2013-02-06 03:30:00,
2013-02-05 19:40:00,48.3,44.9,29.61,NNE,22,0.0,3.0,88,0.00,,CLR,0.00,0.00,VWS V14.01,2013-02-06 03:40:00,
2013-02-05 19:50:00,48.2,44.8,29.61,North,0,0.0,2.0,88,0.00,,CLR,0.00,0.00,VWS V14.01,2013-02-06 03:50:00,
2013-02-05 20:00:00,48.1,44.7,29.61,North,0,0.0,1.0,88,0.00,,CLR,0.00,0.00,VWS V14.01,2013-02-06 04:00:00,
2013-02-05 20:10:00,47.8,44.7,29.61,WSW,248,0.0,2.0,89,0.00,,CLR,0.00,0.00,VWS V14.01,2013-02-06 04:10:00,
2013-02-05 20:20:00,47.6,44.5,29.61,WNW,292,0.0,10.0,89,0.00,,CLR,0.00,0.00,VWS V14.01,2013-02-06 04:20:00,
2013-02-05 20:30:00,47.6,44.8,29.61,North,0,0.0,3.0,90,0.00,,CLR,0.00,0.00,VWS V14.01,2013-02-06 04:30:00,
2013-02-05 20:40:00,47.3,44.2,29.61,North,0,0.0,3.0,89,0.00,,CLR,0.00,0.00,VWS V14.01,2013-02-06 04:40:00,
2013-02-05 20:50:00,47.1,44.0,29.62,North,0,0.0,3.0,89,0.00,,CLR,0.00,0.00,VWS V14.01,2013-02-06 04:50:00,
2013-02-05 21:00:00,46.7,43.9,29.62,North,0,0.0,5.0,90,0.00,,CLR,0.00,0.00,VWS V14.01,2013-02-06 05:00:00,
2013-02-05 21:10:00,47.1,44.3,29.62,West,270,0.0,3.0,90,0.00,,CLR,0.00,0.00,VWS V14.01,2013-02-06 05:10:00,
2013-02-05 21:20:00,47.1,44.0,29.62,NW,315,0.0,2.0,89,0.00,,CLR,0.00,0.00,VWS V14.01,2013-02-06 05:20:00,
2013-02-05 21:30:00,47.1,43.7,29.62,North,0,1.0,6.0,88,0.00,,CLR,0.00,0.00,VWS V14.01,2013-02-06 05:30:00,
2013-02-05 21:40:00,47.1,43.4,29.62,North,0,0.0,4.0,87,0.00,,CLR,0.00,0.00,VWS V14.01,2013-02-06 05:40:00,
2013-02-05 21:50:00,46.5,43.1,29.62,North,0,0.0,4.0,88,0.00,,CLR,0.00,0.00,VWS V14.01,2013-02-06 05:50:00,
2013-02-05 22:00:00,46.3,43.0,29.62,North,0,0.0,2.0,88,0.00,,CLR,0.00,0.00,VWS V14.01,2013-02-06 06:00:00,
2013-02-05 22:10:00,46.4,42.8,29.63,North,0,0.0,4.0,87,0.00,,CLR,0.00,0.00,VWS V14.01,2013-02-06 06:10:00,
2013-02-05 22:20:00,46.3,42.7,29.63,NNE,22,0.0,5.0,87,0.00,,CLR,0.00,0.00,VWS V14.01,2013-02-06 06:20:00,
2013-02-05 22:30:00,45.9,42.3,29.63,NNW,338,0.0,3.0,87,0.00,,CLR,0.00,0.00,VWS V14.01,2013-02-06 06:30:00,
2013-02-05 22:40:00,45.6,42.0,29.63,NNW,338,0.0,1.0,87,0.00,,CLR,0.00,0.00,VWS V14.01,2013-02-06 06:40:00,
2013-02-05 22:50:00,45.4,41.8,29.63,NNW,338,0.0,3.0,87,0.00,,CLR,0.00,0.00,VWS V14.01,2013-02-06 06:50:00,
2013-02-05 23:00:00,45.2,41.6,29.63,WNW,292,0.0,2.0,87,0.00,,CLR,0.00,0.00,VWS V14.01,2013-02-06 07:00:00,
2013-02-05 23:10:00,45.1,41.5,29.63,WNW,292,0.0,2.0,87,0.00,,CLR,0.00,0.00,VWS V14.01,2013-02-06 07:10:00,
2013-02-05 23:20:00,44.2,40.6,29.64,NW,315,0.0,2.0,87,0.00,,CLR,0.00,0.00,VWS V14.01,2013-02-06 07:20:00,
2013-02-05 23:30:00,41.9,39.8,29.64,NNW,338,0.0,2.0,92,0.00,,CLR,0.00,0.00,VWS V14.01,2013-02-06 07:30:00,
2013-02-05 23:40:00,43.2,40.2,29.64,NNW,338,0.0,2.0,89,0.00,,CLR,0.00,0.00,VWS V14.01,2013-02-06 07:40:00,
2013-02-05 23:50:00,42.7,40.0,29.64,NNW,338,0.0,1.0,90,0.00,,CLR,0.00,0.00,VWS V14.01,2013-02-06 07:50:00,